<?xml version="1.0" encoding="UTF-8"?>
<gpx version="1.1" creator="Endomondo.com" xsi:schemaLocation="http://www.topografix.com/GPX/1/1 http://www.topografix.com/GPX/1/1/gpx.xsd http://www.garmin.com/xmlschemas/GpxExtensions/v3 http://www.garmin.com/xmlschemas/GpxExtensionsv3.xsd http://www.garmin.com/xmlschemas/TrackPointExtension/v1 http://www.garmin.com/xmlschemas/TrackPointExtensionv1.xsd" xmlns="http://www.topografix.com/GPX/1/1" xmlns:gpxtpx="http://www.garmin.com/xmlschemas/TrackPointExtension/v1" xmlns:gpxx="http://www.garmin.com/xmlschemas/GpxExtensions/v3" xmlns:xsi="http://www.w3.org/2001/XMLSchema-instance">
  <metadata>
    <author>
      <name>Matej Hercog</name>
      <email id="her.matej" domain="gmail.com"/>
    </author>
    <link href="http://www.endomondo.com">
      <text>Endomondo</text>
    </link>
    <time>2011-07-05T09:43:08Z</time>
    <bounds minlat="46.2972683" minlon="15.5828212" maxlat="46.2970391" maxlon="15.5833218"/>
  </metadata>
  <trk>
    <src>http://www.endomondo.com/</src>
    <link href="http://www.endomondo.com/workouts/g16_Ugk6SnI">
      <text>endomondo</text>
    </link>
    <type>HIKING</type>
    <trkseg>
      <trkpt lat="46.2972683" lon="15.5828212">
        <time>2011-07-03T10:41:06Z</time>
      </trkpt>
      <trkpt lat="46.2972683" lon="15.5828212">
        <ele>386.0</ele>
        <time>2011-07-03T10:41:07Z</time>
      </trkpt>
      <trkpt lat="46.2972683" lon="15.5828212">
        <ele>386.0</ele>
        <time>2011-07-03T10:41:32Z</time>
      </trkpt>
      <trkpt lat="46.2972683" lon="15.5828212">
        <ele>386.0</ele>
        <time>2011-07-03T10:41:50Z</time>
      </trkpt>
      <trkpt lat="46.2972774" lon="15.58291">
        <ele>387.0</ele>
        <time>2011-07-03T10:41:52Z</time>
      </trkpt>
      <trkpt lat="46.2972534" lon="15.5829726">
        <ele>388.0</ele>
        <time>2011-07-03T10:41:58Z</time>
      </trkpt>
      <trkpt lat="46.2972138" lon="15.5830389">
        <ele>389.0</ele>
        <time>2011-07-03T10:42:06Z</time>
      </trkpt>
      <trkpt lat="46.2971605" lon="15.5830868">
        <ele>389.5</ele>
        <time>2011-07-03T10:42:10Z</time>
      </trkpt>
      <trkpt lat="46.2971427" lon="15.5831579">
        <ele>393.0</ele>
        <time>2011-07-03T10:42:18Z</time>
      </trkpt>
      <trkpt lat="46.2971567" lon="15.5832263">
        <ele>398.0</ele>
        <time>2011-07-03T10:42:26Z</time>
      </trkpt>
      <trkpt lat="46.2970906" lon="15.583179">
        <ele>402.5</ele>
        <time>2011-07-03T10:42:36Z</time>
      </trkpt>
      <trkpt lat="46.2970063" lon="15.5831243">
        <ele>407.0</ele>
        <time>2011-07-03T10:42:46Z</time>
      </trkpt>
      <trkpt lat="46.2969609" lon="15.5830093">
        <ele>411.0</ele>
        <time>2011-07-03T10:42:58Z</time>
      </trkpt>
      <trkpt lat="46.2968683" lon="15.58289">
        <ele>415.5</ele>
        <time>2011-07-03T10:43:18Z</time>
      </trkpt>
      <trkpt lat="46.2968181" lon="15.5828819">
        <ele>417.5</ele>
        <time>2011-07-03T10:43:32Z</time>
      </trkpt>
      <trkpt lat="46.2967661" lon="15.5828956">
        <ele>418.5</ele>
        <time>2011-07-03T10:43:36Z</time>
      </trkpt>
      <trkpt lat="46.29672" lon="15.5829209">
        <ele>418.5</ele>
        <time>2011-07-03T10:43:44Z</time>
      </trkpt>
      <trkpt lat="46.29672" lon="15.5829209">
        <ele>418.5</ele>
        <time>2011-07-03T10:44:40Z</time>
      </trkpt>
      <trkpt lat="46.2964118" lon="15.5829065">
        <ele>426.5</ele>
        <time>2011-07-03T10:44:44Z</time>
      </trkpt>
      <trkpt lat="46.296368" lon="15.5829078">
        <ele>426.5</ele>
        <time>2011-07-03T10:44:52Z</time>
      </trkpt>
      <trkpt lat="46.296368" lon="15.5829078">
        <ele>426.5</ele>
        <time>2011-07-03T10:45:56Z</time>
      </trkpt>
      <trkpt lat="46.2960447" lon="15.5827179">
        <ele>429.5</ele>
        <time>2011-07-03T10:46:00Z</time>
      </trkpt>
      <trkpt lat="46.2960236" lon="15.5826515">
        <ele>431.0</ele>
        <time>2011-07-03T10:46:12Z</time>
      </trkpt>
      <trkpt lat="46.2959584" lon="15.5826283">
        <ele>433.5</ele>
        <time>2011-07-03T10:46:24Z</time>
      </trkpt>
      <trkpt lat="46.2957924" lon="15.5826609">
        <ele>439.0</ele>
        <time>2011-07-03T10:46:52Z</time>
      </trkpt>
      <trkpt lat="46.2957526" lon="15.5827007">
        <ele>440.5</ele>
        <time>2011-07-03T10:46:58Z</time>
      </trkpt>
      <trkpt lat="46.2957318" lon="15.5827218">
        <ele>441.0</ele>
        <time>2011-07-03T10:47:02Z</time>
      </trkpt>
      <trkpt lat="46.2956494" lon="15.5827252">
        <ele>441.0</ele>
        <time>2011-07-03T10:47:08Z</time>
      </trkpt>
      <trkpt lat="46.2955981" lon="15.5827314">
        <ele>446.5</ele>
        <time>2011-07-03T10:47:24Z</time>
      </trkpt>
      <trkpt lat="46.2955707" lon="15.5827922">
        <ele>450.0</ele>
        <time>2011-07-03T10:47:36Z</time>
      </trkpt>
      <trkpt lat="46.2955307" lon="15.582834">
        <ele>453.5</ele>
        <time>2011-07-03T10:47:42Z</time>
      </trkpt>
      <trkpt lat="46.2954873" lon="15.5828715">
        <ele>455.0</ele>
        <time>2011-07-03T10:47:48Z</time>
      </trkpt>
      <trkpt lat="46.2955269" lon="15.5830526">
        <ele>462.5</ele>
        <time>2011-07-03T10:48:08Z</time>
      </trkpt>
      <trkpt lat="46.2955402" lon="15.5831091">
        <ele>466.0</ele>
        <time>2011-07-03T10:48:18Z</time>
      </trkpt>
      <trkpt lat="46.2954158" lon="15.5831826">
        <ele>470.0</ele>
        <time>2011-07-03T10:48:38Z</time>
      </trkpt>
      <trkpt lat="46.2953661" lon="15.583194">
        <ele>471.0</ele>
        <time>2011-07-03T10:48:44Z</time>
      </trkpt>
      <trkpt lat="46.2953224" lon="15.5831614">
        <ele>471.5</ele>
        <time>2011-07-03T10:48:48Z</time>
      </trkpt>
      <trkpt lat="46.2952485" lon="15.5832052">
        <ele>472.5</ele>
        <time>2011-07-03T10:48:56Z</time>
      </trkpt>
      <trkpt lat="46.2952139" lon="15.5832539">
        <ele>473.0</ele>
        <time>2011-07-03T10:49:00Z</time>
      </trkpt>
      <trkpt lat="46.2951642" lon="15.5833308">
        <ele>476.5</ele>
        <time>2011-07-03T10:49:10Z</time>
      </trkpt>
      <trkpt lat="46.2950853" lon="15.583359">
        <ele>478.0</ele>
        <time>2011-07-03T10:49:20Z</time>
      </trkpt>
      <trkpt lat="46.2950502" lon="15.5834184">
        <ele>480.5</ele>
        <time>2011-07-03T10:49:26Z</time>
      </trkpt>
      <trkpt lat="46.2949677" lon="15.5835343">
        <ele>485.0</ele>
        <time>2011-07-03T10:49:42Z</time>
      </trkpt>
      <trkpt lat="46.294915" lon="15.583595">
        <ele>489.5</ele>
        <time>2011-07-03T10:49:52Z</time>
      </trkpt>
      <trkpt lat="46.294887" lon="15.5836276">
        <ele>490.5</ele>
        <time>2011-07-03T10:49:56Z</time>
      </trkpt>
      <trkpt lat="46.2948195" lon="15.5836592">
        <ele>491.0</ele>
        <time>2011-07-03T10:50:10Z</time>
      </trkpt>
      <trkpt lat="46.2947934" lon="15.5836719">
        <ele>492.0</ele>
        <time>2011-07-03T10:50:12Z</time>
      </trkpt>
      <trkpt lat="46.2947533" lon="15.583702">
        <ele>494.5</ele>
        <time>2011-07-03T10:50:22Z</time>
      </trkpt>
      <trkpt lat="46.2947069" lon="15.5837335">
        <ele>498.5</ele>
        <time>2011-07-03T10:50:34Z</time>
      </trkpt>
      <trkpt lat="46.2946611" lon="15.5837632">
        <ele>498.5</ele>
        <time>2011-07-03T10:50:40Z</time>
      </trkpt>
      <trkpt lat="46.2945327" lon="15.5838788">
        <ele>500.5</ele>
        <time>2011-07-03T10:51:00Z</time>
      </trkpt>
      <trkpt lat="46.2944758" lon="15.5839544">
        <ele>503.5</ele>
        <time>2011-07-03T10:51:10Z</time>
      </trkpt>
      <trkpt lat="46.2944423" lon="15.5839949">
        <ele>504.0</ele>
        <time>2011-07-03T10:51:14Z</time>
      </trkpt>
      <trkpt lat="46.2943788" lon="15.5840299">
        <ele>504.0</ele>
        <time>2011-07-03T10:51:20Z</time>
      </trkpt>
      <trkpt lat="46.2942674" lon="15.5840824">
        <ele>505.5</ele>
        <time>2011-07-03T10:51:28Z</time>
      </trkpt>
      <trkpt lat="46.2941847" lon="15.5840746">
        <ele>505.0</ele>
        <time>2011-07-03T10:51:34Z</time>
      </trkpt>
      <trkpt lat="46.2941847" lon="15.5840746">
        <ele>505.0</ele>
        <time>2011-07-03T10:52:06Z</time>
      </trkpt>
      <trkpt lat="46.2941847" lon="15.5840746">
        <ele>505.0</ele>
        <time>2011-07-03T10:52:32Z</time>
      </trkpt>
      <trkpt lat="46.2941847" lon="15.5840746">
        <ele>505.0</ele>
        <time>2011-07-03T10:52:50Z</time>
      </trkpt>
      <trkpt lat="46.2941847" lon="15.5840746">
        <ele>505.0</ele>
        <time>2011-07-03T10:53:18Z</time>
      </trkpt>
      <trkpt lat="46.2941847" lon="15.5840746">
        <ele>505.0</ele>
        <time>2011-07-03T10:53:36Z</time>
      </trkpt>
      <trkpt lat="46.2941847" lon="15.5840746">
        <ele>505.0</ele>
        <time>2011-07-03T10:54:10Z</time>
      </trkpt>
      <trkpt lat="46.2941847" lon="15.5840746">
        <ele>505.0</ele>
        <time>2011-07-03T10:54:28Z</time>
      </trkpt>
      <trkpt lat="46.2941847" lon="15.5840746">
        <ele>505.0</ele>
        <time>2011-07-03T10:54:46Z</time>
      </trkpt>
      <trkpt lat="46.2941847" lon="15.5840746">
        <ele>505.0</ele>
        <time>2011-07-03T10:55:04Z</time>
      </trkpt>
      <trkpt lat="46.2941847" lon="15.5840746">
        <ele>505.0</ele>
        <time>2011-07-03T10:55:22Z</time>
      </trkpt>
      <trkpt lat="46.2941168" lon="15.5842799">
        <ele>497.5</ele>
        <time>2011-07-03T10:55:26Z</time>
      </trkpt>
      <trkpt lat="46.2940683" lon="15.5843278">
        <ele>499.0</ele>
        <time>2011-07-03T10:55:36Z</time>
      </trkpt>
      <trkpt lat="46.2940224" lon="15.5843095">
        <ele>500.5</ele>
        <time>2011-07-03T10:55:44Z</time>
      </trkpt>
      <trkpt lat="46.2940224" lon="15.5843095">
        <ele>500.5</ele>
        <time>2011-07-03T10:56:20Z</time>
      </trkpt>
      <trkpt lat="46.2938938" lon="15.584268">
        <ele>508.0</ele>
        <time>2011-07-03T10:56:22Z</time>
      </trkpt>
      <trkpt lat="46.2938712" lon="15.5842579">
        <ele>510.0</ele>
        <time>2011-07-03T10:56:26Z</time>
      </trkpt>
      <trkpt lat="46.2938271" lon="15.584271">
        <ele>512.0</ele>
        <time>2011-07-03T10:56:38Z</time>
      </trkpt>
      <trkpt lat="46.293767" lon="15.5842774">
        <ele>512.5</ele>
        <time>2011-07-03T10:56:52Z</time>
      </trkpt>
      <trkpt lat="46.2936798" lon="15.584286">
        <ele>516.5</ele>
        <time>2011-07-03T10:57:12Z</time>
      </trkpt>
      <trkpt lat="46.2936147" lon="15.5842896">
        <ele>518.5</ele>
        <time>2011-07-03T10:57:28Z</time>
      </trkpt>
      <trkpt lat="46.2935333" lon="15.5843551">
        <ele>523.5</ele>
        <time>2011-07-03T10:57:46Z</time>
      </trkpt>
      <trkpt lat="46.2935216" lon="15.5843851">
        <ele>527.5</ele>
        <time>2011-07-03T10:57:56Z</time>
      </trkpt>
      <trkpt lat="46.2934777" lon="15.5844108">
        <ele>530.0</ele>
        <time>2011-07-03T10:58:08Z</time>
      </trkpt>
      <trkpt lat="46.2934319" lon="15.5843897">
        <ele>530.5</ele>
        <time>2011-07-03T10:58:14Z</time>
      </trkpt>
      <trkpt lat="46.2933878" lon="15.584362">
        <ele>532.5</ele>
        <time>2011-07-03T10:58:20Z</time>
      </trkpt>
      <trkpt lat="46.293335" lon="15.5843813">
        <ele>538.5</ele>
        <time>2011-07-03T10:58:32Z</time>
      </trkpt>
      <trkpt lat="46.293335" lon="15.5843813">
        <ele>538.5</ele>
        <time>2011-07-03T11:00:12Z</time>
      </trkpt>
      <trkpt lat="46.2929878" lon="15.5847036">
        <ele>560.5</ele>
        <time>2011-07-03T11:00:16Z</time>
      </trkpt>
      <trkpt lat="46.2929298" lon="15.5846956">
        <ele>564.5</ele>
        <time>2011-07-03T11:00:26Z</time>
      </trkpt>
      <trkpt lat="46.2928566" lon="15.5846638">
        <ele>566.0</ele>
        <time>2011-07-03T11:00:36Z</time>
      </trkpt>
      <trkpt lat="46.2928566" lon="15.5846638">
        <ele>566.0</ele>
        <time>2011-07-03T11:00:52Z</time>
      </trkpt>
      <trkpt lat="46.2928566" lon="15.5846638">
        <ele>566.0</ele>
        <time>2011-07-03T11:01:48Z</time>
      </trkpt>
      <trkpt lat="46.292599" lon="15.5848399">
        <ele>571.5</ele>
        <time>2011-07-03T11:01:52Z</time>
      </trkpt>
      <trkpt lat="46.2925605" lon="15.5848762">
        <ele>571.0</ele>
        <time>2011-07-03T11:02:00Z</time>
      </trkpt>
      <trkpt lat="46.2925297" lon="15.5849034">
        <ele>571.5</ele>
        <time>2011-07-03T11:02:08Z</time>
      </trkpt>
      <trkpt lat="46.2925297" lon="15.5849034">
        <ele>571.5</ele>
        <time>2011-07-03T11:03:46Z</time>
      </trkpt>
      <trkpt lat="46.292151" lon="15.585056">
        <ele>596.5</ele>
        <time>2011-07-03T11:03:50Z</time>
      </trkpt>
      <trkpt lat="46.2921158" lon="15.585106">
        <ele>597.5</ele>
        <time>2011-07-03T11:03:58Z</time>
      </trkpt>
      <trkpt lat="46.2920651" lon="15.5851637">
        <ele>600.0</ele>
        <time>2011-07-03T11:04:08Z</time>
      </trkpt>
      <trkpt lat="46.2920651" lon="15.5851637">
        <ele>600.0</ele>
        <time>2011-07-03T11:04:34Z</time>
      </trkpt>
      <trkpt lat="46.2920651" lon="15.5851637">
        <ele>600.0</ele>
        <time>2011-07-03T11:04:52Z</time>
      </trkpt>
      <trkpt lat="46.2920651" lon="15.5851637">
        <ele>600.0</ele>
        <time>2011-07-03T11:05:14Z</time>
      </trkpt>
      <trkpt lat="46.2920651" lon="15.5851637">
        <ele>600.0</ele>
        <time>2011-07-03T11:05:58Z</time>
      </trkpt>
      <trkpt lat="46.2920651" lon="15.5851637">
        <ele>600.0</ele>
        <time>2011-07-03T11:06:16Z</time>
      </trkpt>
      <trkpt lat="46.2920651" lon="15.5851637">
        <ele>600.0</ele>
        <time>2011-07-03T11:06:34Z</time>
      </trkpt>
      <trkpt lat="46.2920651" lon="15.5851637">
        <ele>600.0</ele>
        <time>2011-07-03T11:08:30Z</time>
      </trkpt>
      <trkpt lat="46.2917566" lon="15.5855458">
        <ele>627.0</ele>
        <time>2011-07-03T11:08:34Z</time>
      </trkpt>
      <trkpt lat="46.291705" lon="15.5855697">
        <ele>631.5</ele>
        <time>2011-07-03T11:08:46Z</time>
      </trkpt>
      <trkpt lat="46.2916475" lon="15.5855924">
        <ele>632.0</ele>
        <time>2011-07-03T11:08:58Z</time>
      </trkpt>
      <trkpt lat="46.2915789" lon="15.5856061">
        <ele>634.5</ele>
        <time>2011-07-03T11:09:06Z</time>
      </trkpt>
      <trkpt lat="46.2915354" lon="15.5856464">
        <ele>636.0</ele>
        <time>2011-07-03T11:09:18Z</time>
      </trkpt>
      <trkpt lat="46.2914931" lon="15.5856875">
        <ele>638.5</ele>
        <time>2011-07-03T11:09:32Z</time>
      </trkpt>
      <trkpt lat="46.2914433" lon="15.5857956">
        <ele>644.5</ele>
        <time>2011-07-03T11:09:56Z</time>
      </trkpt>
      <trkpt lat="46.2914017" lon="15.5858433">
        <ele>647.0</ele>
        <time>2011-07-03T11:10:04Z</time>
      </trkpt>
      <trkpt lat="46.2913663" lon="15.5858798">
        <ele>647.5</ele>
        <time>2011-07-03T11:10:08Z</time>
      </trkpt>
      <trkpt lat="46.2913418" lon="15.5859069">
        <ele>649.0</ele>
        <time>2011-07-03T11:10:12Z</time>
      </trkpt>
      <trkpt lat="46.2912557" lon="15.5859925">
        <ele>656.5</ele>
        <time>2011-07-03T11:10:28Z</time>
      </trkpt>
      <trkpt lat="46.291201" lon="15.5860556">
        <ele>659.5</ele>
        <time>2011-07-03T11:10:34Z</time>
      </trkpt>
      <trkpt lat="46.2911403" lon="15.5861601">
        <ele>667.0</ele>
        <time>2011-07-03T11:10:50Z</time>
      </trkpt>
      <trkpt lat="46.2911121" lon="15.5862081">
        <ele>668.0</ele>
        <time>2011-07-03T11:10:54Z</time>
      </trkpt>
      <trkpt lat="46.2910689" lon="15.5862482">
        <ele>668.5</ele>
        <time>2011-07-03T11:11:02Z</time>
      </trkpt>
      <trkpt lat="46.291015" lon="15.5862853">
        <ele>669.5</ele>
        <time>2011-07-03T11:11:10Z</time>
      </trkpt>
      <trkpt lat="46.2909782" lon="15.586361">
        <ele>673.0</ele>
        <time>2011-07-03T11:11:18Z</time>
      </trkpt>
      <trkpt lat="46.2908995" lon="15.586527">
        <ele>671.5</ele>
        <time>2011-07-03T11:11:28Z</time>
      </trkpt>
      <trkpt lat="46.2908723" lon="15.5865758">
        <ele>676.0</ele>
        <time>2011-07-03T11:11:36Z</time>
      </trkpt>
      <trkpt lat="46.2908466" lon="15.5866192">
        <ele>679.5</ele>
        <time>2011-07-03T11:11:42Z</time>
      </trkpt>
      <trkpt lat="46.2907827" lon="15.5867292">
        <ele>683.0</ele>
        <time>2011-07-03T11:11:52Z</time>
      </trkpt>
      <trkpt lat="46.2907531" lon="15.5867792">
        <ele>684.5</ele>
        <time>2011-07-03T11:11:58Z</time>
      </trkpt>
      <trkpt lat="46.2906939" lon="15.5868777">
        <ele>688.0</ele>
        <time>2011-07-03T11:12:10Z</time>
      </trkpt>
      <trkpt lat="46.2906864" lon="15.5869598">
        <ele>697.0</ele>
        <time>2011-07-03T11:12:20Z</time>
      </trkpt>
      <trkpt lat="46.2906789" lon="15.5870194">
        <ele>702.0</ele>
        <time>2011-07-03T11:12:28Z</time>
      </trkpt>
      <trkpt lat="46.2906338" lon="15.5870812">
        <ele>703.5</ele>
        <time>2011-07-03T11:12:36Z</time>
      </trkpt>
      <trkpt lat="46.2906115" lon="15.5871131">
        <ele>705.5</ele>
        <time>2011-07-03T11:12:40Z</time>
      </trkpt>
      <trkpt lat="46.2905761" lon="15.5871547">
        <ele>707.0</ele>
        <time>2011-07-03T11:12:46Z</time>
      </trkpt>
      <trkpt lat="46.2905404" lon="15.5871953">
        <ele>707.0</ele>
        <time>2011-07-03T11:12:50Z</time>
      </trkpt>
      <trkpt lat="46.2905046" lon="15.5872387">
        <ele>707.0</ele>
        <time>2011-07-03T11:12:56Z</time>
      </trkpt>
      <trkpt lat="46.2904823" lon="15.5872614">
        <ele>707.0</ele>
        <time>2011-07-03T11:12:58Z</time>
      </trkpt>
      <trkpt lat="46.2904462" lon="15.5873164">
        <ele>708.5</ele>
        <time>2011-07-03T11:13:06Z</time>
      </trkpt>
      <trkpt lat="46.2904286" lon="15.587345">
        <ele>708.0</ele>
        <time>2011-07-03T11:13:10Z</time>
      </trkpt>
      <trkpt lat="46.2903797" lon="15.5873623">
        <ele>708.0</ele>
        <time>2011-07-03T11:13:16Z</time>
      </trkpt>
      <trkpt lat="46.2901855" lon="15.5874312">
        <ele>703.0</ele>
        <time>2011-07-03T11:13:20Z</time>
      </trkpt>
      <trkpt lat="46.2900645" lon="15.5874148">
        <ele>699.0</ele>
        <time>2011-07-03T11:13:28Z</time>
      </trkpt>
      <trkpt lat="46.2899933" lon="15.5874188">
        <ele>696.0</ele>
        <time>2011-07-03T11:13:36Z</time>
      </trkpt>
      <trkpt lat="46.2899933" lon="15.5874188">
        <ele>696.0</ele>
        <time>2011-07-03T11:14:08Z</time>
      </trkpt>
      <trkpt lat="46.2899359" lon="15.5874266">
        <ele>691.0</ele>
        <time>2011-07-03T11:14:10Z</time>
      </trkpt>
      <trkpt lat="46.2899302" lon="15.5875399">
        <ele>692.0</ele>
        <time>2011-07-03T11:14:22Z</time>
      </trkpt>
      <trkpt lat="46.2898752" lon="15.5876039">
        <ele>691.5</ele>
        <time>2011-07-03T11:14:30Z</time>
      </trkpt>
      <trkpt lat="46.2898752" lon="15.5876039">
        <ele>691.5</ele>
        <time>2011-07-03T11:14:56Z</time>
      </trkpt>
      <trkpt lat="46.289826" lon="15.5876029">
        <ele>691.0</ele>
        <time>2011-07-03T11:15:00Z</time>
      </trkpt>
      <trkpt lat="46.2897786" lon="15.5875899">
        <ele>690.0</ele>
        <time>2011-07-03T11:15:04Z</time>
      </trkpt>
      <trkpt lat="46.2897786" lon="15.5875899">
        <ele>690.0</ele>
        <time>2011-07-03T11:15:16Z</time>
      </trkpt>
      <trkpt lat="46.2897786" lon="15.5875899">
        <ele>690.0</ele>
        <time>2011-07-03T11:15:46Z</time>
      </trkpt>
      <trkpt lat="46.2896902" lon="15.587681">
        <ele>693.0</ele>
        <time>2011-07-03T11:15:48Z</time>
      </trkpt>
      <trkpt lat="46.2896436" lon="15.5876816">
        <ele>694.0</ele>
        <time>2011-07-03T11:15:52Z</time>
      </trkpt>
      <trkpt lat="46.2895739" lon="15.5876825">
        <ele>697.0</ele>
        <time>2011-07-03T11:16:10Z</time>
      </trkpt>
      <trkpt lat="46.2895276" lon="15.5876531">
        <ele>697.5</ele>
        <time>2011-07-03T11:16:22Z</time>
      </trkpt>
      <trkpt lat="46.2894774" lon="15.5876524">
        <ele>701.5</ele>
        <time>2011-07-03T11:16:38Z</time>
      </trkpt>
      <trkpt lat="46.2894371" lon="15.5876855">
        <ele>705.5</ele>
        <time>2011-07-03T11:16:52Z</time>
      </trkpt>
      <trkpt lat="46.2893498" lon="15.5877508">
        <ele>709.0</ele>
        <time>2011-07-03T11:17:06Z</time>
      </trkpt>
      <trkpt lat="46.2893498" lon="15.5877508">
        <ele>709.0</ele>
        <time>2011-07-03T11:17:38Z</time>
      </trkpt>
      <trkpt lat="46.2892032" lon="15.5878844">
        <ele>717.5</ele>
        <time>2011-07-03T11:17:40Z</time>
      </trkpt>
      <trkpt lat="46.2891556" lon="15.5879347">
        <ele>718.5</ele>
        <time>2011-07-03T11:17:44Z</time>
      </trkpt>
      <trkpt lat="46.2890733" lon="15.5879738">
        <ele>716.0</ele>
        <time>2011-07-03T11:17:50Z</time>
      </trkpt>
      <trkpt lat="46.2890422" lon="15.5880271">
        <ele>716.0</ele>
        <time>2011-07-03T11:17:58Z</time>
      </trkpt>
      <trkpt lat="46.2890158" lon="15.5881039">
        <ele>717.5</ele>
        <time>2011-07-03T11:18:06Z</time>
      </trkpt>
      <trkpt lat="46.2889988" lon="15.5881518">
        <ele>719.5</ele>
        <time>2011-07-03T11:18:12Z</time>
      </trkpt>
      <trkpt lat="46.2889393" lon="15.5882809">
        <ele>726.0</ele>
        <time>2011-07-03T11:18:28Z</time>
      </trkpt>
      <trkpt lat="46.2888901" lon="15.5883454">
        <ele>729.0</ele>
        <time>2011-07-03T11:18:38Z</time>
      </trkpt>
      <trkpt lat="46.2888689" lon="15.5883736">
        <ele>732.0</ele>
        <time>2011-07-03T11:18:44Z</time>
      </trkpt>
      <trkpt lat="46.2888363" lon="15.588429">
        <ele>732.5</ele>
        <time>2011-07-03T11:18:54Z</time>
      </trkpt>
      <trkpt lat="46.288785" lon="15.5884639">
        <ele>733.5</ele>
        <time>2011-07-03T11:19:02Z</time>
      </trkpt>
      <trkpt lat="46.2887308" lon="15.5884931">
        <ele>734.5</ele>
        <time>2011-07-03T11:19:12Z</time>
      </trkpt>
      <trkpt lat="46.2886957" lon="15.5885674">
        <ele>735.0</ele>
        <time>2011-07-03T11:19:22Z</time>
      </trkpt>
      <trkpt lat="46.2886616" lon="15.5886194">
        <ele>733.5</ele>
        <time>2011-07-03T11:19:30Z</time>
      </trkpt>
      <trkpt lat="46.288573" lon="15.5887129">
        <ele>737.5</ele>
        <time>2011-07-03T11:19:54Z</time>
      </trkpt>
      <trkpt lat="46.2885196" lon="15.5887103">
        <ele>739.0</ele>
        <time>2011-07-03T11:20:02Z</time>
      </trkpt>
      <trkpt lat="46.2884724" lon="15.5887549">
        <ele>741.5</ele>
        <time>2011-07-03T11:20:18Z</time>
      </trkpt>
      <trkpt lat="46.2884445" lon="15.5887805">
        <ele>742.0</ele>
        <time>2011-07-03T11:20:24Z</time>
      </trkpt>
      <trkpt lat="46.2883979" lon="15.5887912">
        <ele>744.0</ele>
        <time>2011-07-03T11:20:32Z</time>
      </trkpt>
      <trkpt lat="46.2883714" lon="15.5888009">
        <ele>745.5</ele>
        <time>2011-07-03T11:20:36Z</time>
      </trkpt>
      <trkpt lat="46.2883256" lon="15.5888585">
        <ele>747.0</ele>
        <time>2011-07-03T11:20:48Z</time>
      </trkpt>
      <trkpt lat="46.2882813" lon="15.5889011">
        <ele>748.0</ele>
        <time>2011-07-03T11:21:00Z</time>
      </trkpt>
      <trkpt lat="46.2881948" lon="15.5889648">
        <ele>747.5</ele>
        <time>2011-07-03T11:21:06Z</time>
      </trkpt>
      <trkpt lat="46.2881514" lon="15.5889896">
        <ele>749.0</ele>
        <time>2011-07-03T11:21:12Z</time>
      </trkpt>
      <trkpt lat="46.2880026" lon="15.5891096">
        <ele>746.5</ele>
        <time>2011-07-03T11:21:24Z</time>
      </trkpt>
      <trkpt lat="46.2879237" lon="15.5891123">
        <ele>746.5</ele>
        <time>2011-07-03T11:21:32Z</time>
      </trkpt>
      <trkpt lat="46.2879174" lon="15.5891852">
        <ele>748.0</ele>
        <time>2011-07-03T11:21:48Z</time>
      </trkpt>
      <trkpt lat="46.2878632" lon="15.5892745">
        <ele>751.5</ele>
        <time>2011-07-03T11:22:08Z</time>
      </trkpt>
      <trkpt lat="46.2878275" lon="15.5893218">
        <ele>752.5</ele>
        <time>2011-07-03T11:22:16Z</time>
      </trkpt>
      <trkpt lat="46.2877897" lon="15.5893692">
        <ele>753.0</ele>
        <time>2011-07-03T11:22:20Z</time>
      </trkpt>
      <trkpt lat="46.2877499" lon="15.5893999">
        <ele>754.5</ele>
        <time>2011-07-03T11:22:26Z</time>
      </trkpt>
      <trkpt lat="46.2876794" lon="15.5894473">
        <ele>752.0</ele>
        <time>2011-07-03T11:22:34Z</time>
      </trkpt>
      <trkpt lat="46.2876487" lon="15.5895288">
        <ele>754.0</ele>
        <time>2011-07-03T11:22:44Z</time>
      </trkpt>
      <trkpt lat="46.2876268" lon="15.5895937">
        <ele>753.5</ele>
        <time>2011-07-03T11:22:52Z</time>
      </trkpt>
      <trkpt lat="46.2876239" lon="15.5896797">
        <ele>754.5</ele>
        <time>2011-07-03T11:23:02Z</time>
      </trkpt>
      <trkpt lat="46.287621" lon="15.5897479">
        <ele>759.0</ele>
        <time>2011-07-03T11:23:14Z</time>
      </trkpt>
      <trkpt lat="46.2876183" lon="15.5897839">
        <ele>759.0</ele>
        <time>2011-07-03T11:23:24Z</time>
      </trkpt>
      <trkpt lat="46.2875876" lon="15.5898718">
        <ele>759.0</ele>
        <time>2011-07-03T11:23:34Z</time>
      </trkpt>
      <trkpt lat="46.2875962" lon="15.5899616">
        <ele>760.5</ele>
        <time>2011-07-03T11:23:40Z</time>
      </trkpt>
      <trkpt lat="46.2876174" lon="15.5900259">
        <ele>762.5</ele>
        <time>2011-07-03T11:23:44Z</time>
      </trkpt>
      <trkpt lat="46.2875871" lon="15.5900974">
        <ele>766.5</ele>
        <time>2011-07-03T11:24:00Z</time>
      </trkpt>
      <trkpt lat="46.2875512" lon="15.5901471">
        <ele>769.0</ele>
        <time>2011-07-03T11:24:12Z</time>
      </trkpt>
      <trkpt lat="46.2874918" lon="15.5902431">
        <ele>770.5</ele>
        <time>2011-07-03T11:24:24Z</time>
      </trkpt>
      <trkpt lat="46.2874613" lon="15.5902963">
        <ele>770.5</ele>
        <time>2011-07-03T11:24:30Z</time>
      </trkpt>
      <trkpt lat="46.2874201" lon="15.5903523">
        <ele>774.0</ele>
        <time>2011-07-03T11:24:44Z</time>
      </trkpt>
      <trkpt lat="46.2873732" lon="15.5904098">
        <ele>776.0</ele>
        <time>2011-07-03T11:24:56Z</time>
      </trkpt>
      <trkpt lat="46.2873397" lon="15.5904634">
        <ele>777.5</ele>
        <time>2011-07-03T11:25:06Z</time>
      </trkpt>
      <trkpt lat="46.2873129" lon="15.5905225">
        <ele>780.5</ele>
        <time>2011-07-03T11:25:16Z</time>
      </trkpt>
      <trkpt lat="46.2872792" lon="15.5905672">
        <ele>782.5</ele>
        <time>2011-07-03T11:25:22Z</time>
      </trkpt>
      <trkpt lat="46.2872064" lon="15.5907217">
        <ele>792.0</ele>
        <time>2011-07-03T11:25:42Z</time>
      </trkpt>
      <trkpt lat="46.2871938" lon="15.5907848">
        <ele>794.0</ele>
        <time>2011-07-03T11:25:46Z</time>
      </trkpt>
      <trkpt lat="46.2871574" lon="15.5908463">
        <ele>796.0</ele>
        <time>2011-07-03T11:25:52Z</time>
      </trkpt>
      <trkpt lat="46.2871647" lon="15.5909554">
        <ele>799.0</ele>
        <time>2011-07-03T11:26:00Z</time>
      </trkpt>
      <trkpt lat="46.2871667" lon="15.5911043">
        <ele>801.0</ele>
        <time>2011-07-03T11:26:06Z</time>
      </trkpt>
      <trkpt lat="46.2871157" lon="15.5912634">
        <ele>805.0</ele>
        <time>2011-07-03T11:26:20Z</time>
      </trkpt>
      <trkpt lat="46.2870538" lon="15.5913947">
        <ele>807.0</ele>
        <time>2011-07-03T11:26:34Z</time>
      </trkpt>
      <trkpt lat="46.2870251" lon="15.5914564">
        <ele>808.5</ele>
        <time>2011-07-03T11:26:40Z</time>
      </trkpt>
      <trkpt lat="46.2870308" lon="15.5915466">
        <ele>809.0</ele>
        <time>2011-07-03T11:26:44Z</time>
      </trkpt>
      <trkpt lat="46.2870342" lon="15.5915813">
        <ele>809.0</ele>
        <time>2011-07-03T11:26:46Z</time>
      </trkpt>
      <trkpt lat="46.2869953" lon="15.5916483">
        <ele>813.0</ele>
        <time>2011-07-03T11:26:56Z</time>
      </trkpt>
      <trkpt lat="46.2869487" lon="15.5917811">
        <ele>814.0</ele>
        <time>2011-07-03T11:27:06Z</time>
      </trkpt>
      <trkpt lat="46.2869075" lon="15.5918904">
        <ele>814.0</ele>
        <time>2011-07-03T11:27:14Z</time>
      </trkpt>
      <trkpt lat="46.2869075" lon="15.5918904">
        <ele>814.0</ele>
        <time>2011-07-03T11:27:52Z</time>
      </trkpt>
      <trkpt lat="46.2869075" lon="15.5918904">
        <ele>814.0</ele>
        <time>2011-07-03T11:28:10Z</time>
      </trkpt>
      <trkpt lat="46.287033" lon="15.5920312">
        <ele>813.5</ele>
        <time>2011-07-03T11:28:12Z</time>
      </trkpt>
      <trkpt lat="46.2870975" lon="15.5920183">
        <ele>812.5</ele>
        <time>2011-07-03T11:28:20Z</time>
      </trkpt>
      <trkpt lat="46.2871805" lon="15.5920777">
        <ele>811.0</ele>
        <time>2011-07-03T11:28:34Z</time>
      </trkpt>
      <trkpt lat="46.2871805" lon="15.5920777">
        <ele>811.0</ele>
        <time>2011-07-03T11:29:00Z</time>
      </trkpt>
      <trkpt lat="46.2871096" lon="15.592128">
        <ele>809.5</ele>
        <time>2011-07-03T11:29:02Z</time>
      </trkpt>
      <trkpt lat="46.2870349" lon="15.5921877">
        <ele>808.0</ele>
        <time>2011-07-03T11:29:28Z</time>
      </trkpt>
      <trkpt lat="46.28705" lon="15.5923779">
        <ele>812.0</ele>
        <time>2011-07-03T11:29:56Z</time>
      </trkpt>
      <trkpt lat="46.2870772" lon="15.5924509">
        <ele>813.5</ele>
        <time>2011-07-03T11:30:02Z</time>
      </trkpt>
      <trkpt lat="46.2870896" lon="15.5925171">
        <ele>814.0</ele>
        <time>2011-07-03T11:30:10Z</time>
      </trkpt>
      <trkpt lat="46.2870967" lon="15.592566">
        <ele>814.0</ele>
        <time>2011-07-03T11:30:14Z</time>
      </trkpt>
      <trkpt lat="46.287095" lon="15.5926388">
        <ele>814.5</ele>
        <time>2011-07-03T11:30:18Z</time>
      </trkpt>
      <trkpt lat="46.2870989" lon="15.5927118">
        <ele>816.0</ele>
        <time>2011-07-03T11:30:22Z</time>
      </trkpt>
      <trkpt lat="46.2871109" lon="15.5928128">
        <ele>817.0</ele>
        <time>2011-07-03T11:30:28Z</time>
      </trkpt>
      <trkpt lat="46.2870599" lon="15.5929911">
        <ele>821.5</ele>
        <time>2011-07-03T11:30:44Z</time>
      </trkpt>
      <trkpt lat="46.2870649" lon="15.5930649">
        <ele>822.0</ele>
        <time>2011-07-03T11:30:50Z</time>
      </trkpt>
      <trkpt lat="46.2870746" lon="15.5931385">
        <ele>822.0</ele>
        <time>2011-07-03T11:30:56Z</time>
      </trkpt>
      <trkpt lat="46.2871424" lon="15.5932256">
        <ele>823.5</ele>
        <time>2011-07-03T11:31:02Z</time>
      </trkpt>
      <trkpt lat="46.2871753" lon="15.5933283">
        <ele>823.0</ele>
        <time>2011-07-03T11:31:06Z</time>
      </trkpt>
      <trkpt lat="46.2871786" lon="15.5933978">
        <ele>823.5</ele>
        <time>2011-07-03T11:31:10Z</time>
      </trkpt>
      <trkpt lat="46.2872377" lon="15.5935935">
        <ele>823.0</ele>
        <time>2011-07-03T11:31:16Z</time>
      </trkpt>
      <trkpt lat="46.2872408" lon="15.5936688">
        <ele>823.0</ele>
        <time>2011-07-03T11:31:20Z</time>
      </trkpt>
      <trkpt lat="46.2872451" lon="15.593809">
        <ele>822.0</ele>
        <time>2011-07-03T11:31:26Z</time>
      </trkpt>
      <trkpt lat="46.2872496" lon="15.5939201">
        <ele>822.0</ele>
        <time>2011-07-03T11:31:34Z</time>
      </trkpt>
      <trkpt lat="46.2872831" lon="15.5939825">
        <ele>822.5</ele>
        <time>2011-07-03T11:31:40Z</time>
      </trkpt>
      <trkpt lat="46.2873051" lon="15.5940846">
        <ele>821.0</ele>
        <time>2011-07-03T11:31:50Z</time>
      </trkpt>
      <trkpt lat="46.2873369" lon="15.5941844">
        <ele>821.0</ele>
        <time>2011-07-03T11:32:00Z</time>
      </trkpt>
      <trkpt lat="46.2873747" lon="15.5942321">
        <ele>821.0</ele>
        <time>2011-07-03T11:32:06Z</time>
      </trkpt>
      <trkpt lat="46.2874158" lon="15.594311">
        <ele>820.5</ele>
        <time>2011-07-03T11:32:10Z</time>
      </trkpt>
      <trkpt lat="46.2874687" lon="15.5943531">
        <ele>821.0</ele>
        <time>2011-07-03T11:32:16Z</time>
      </trkpt>
      <trkpt lat="46.2874991" lon="15.5943773">
        <ele>821.0</ele>
        <time>2011-07-03T11:32:20Z</time>
      </trkpt>
      <trkpt lat="46.2874991" lon="15.5943773">
        <ele>821.0</ele>
        <time>2011-07-03T11:33:00Z</time>
      </trkpt>
      <trkpt lat="46.2876279" lon="15.5945553">
        <ele>827.0</ele>
        <time>2011-07-03T11:33:02Z</time>
      </trkpt>
      <trkpt lat="46.2875949" lon="15.5946356">
        <ele>828.0</ele>
        <time>2011-07-03T11:33:12Z</time>
      </trkpt>
      <trkpt lat="46.2875664" lon="15.5946903">
        <ele>827.5</ele>
        <time>2011-07-03T11:33:18Z</time>
      </trkpt>
      <trkpt lat="46.2875934" lon="15.5947722">
        <ele>827.5</ele>
        <time>2011-07-03T11:33:30Z</time>
      </trkpt>
      <trkpt lat="46.2876528" lon="15.5947965">
        <ele>830.0</ele>
        <time>2011-07-03T11:33:40Z</time>
      </trkpt>
      <trkpt lat="46.2877071" lon="15.5948407">
        <ele>830.5</ele>
        <time>2011-07-03T11:33:44Z</time>
      </trkpt>
      <trkpt lat="46.2877354" lon="15.594863">
        <ele>831.0</ele>
        <time>2011-07-03T11:33:48Z</time>
      </trkpt>
      <trkpt lat="46.2877731" lon="15.5949014">
        <ele>832.0</ele>
        <time>2011-07-03T11:33:54Z</time>
      </trkpt>
      <trkpt lat="46.2877731" lon="15.5949014">
        <ele>832.0</ele>
        <time>2011-07-03T11:34:26Z</time>
      </trkpt>
      <trkpt lat="46.2877731" lon="15.5949014">
        <ele>832.0</ele>
        <time>2011-07-03T11:34:54Z</time>
      </trkpt>
      <trkpt lat="46.2877809" lon="15.5950014">
        <ele>842.5</ele>
        <time>2011-07-03T11:34:56Z</time>
      </trkpt>
      <trkpt lat="46.2878111" lon="15.5950545">
        <ele>843.5</ele>
        <time>2011-07-03T11:35:04Z</time>
      </trkpt>
      <trkpt lat="46.2878254" lon="15.595146">
        <ele>845.0</ele>
        <time>2011-07-03T11:35:12Z</time>
      </trkpt>
      <trkpt lat="46.2878254" lon="15.595146">
        <ele>845.0</ele>
        <time>2011-07-03T11:35:28Z</time>
      </trkpt>
      <trkpt lat="46.2878254" lon="15.595146">
        <ele>845.0</ele>
        <time>2011-07-03T11:35:54Z</time>
      </trkpt>
      <trkpt lat="46.2878696" lon="15.5952788">
        <ele>857.0</ele>
        <time>2011-07-03T11:35:56Z</time>
      </trkpt>
      <trkpt lat="46.2878494" lon="15.5953391">
        <ele>857.5</ele>
        <time>2011-07-03T11:36:00Z</time>
      </trkpt>
      <trkpt lat="46.2878943" lon="15.5954099">
        <ele>859.5</ele>
        <time>2011-07-03T11:36:10Z</time>
      </trkpt>
      <trkpt lat="46.2878943" lon="15.5954099">
        <ele>859.5</ele>
        <time>2011-07-03T11:36:26Z</time>
      </trkpt>
      <trkpt lat="46.2878943" lon="15.5954099">
        <ele>859.5</ele>
        <time>2011-07-03T11:36:52Z</time>
      </trkpt>
      <trkpt lat="46.2878943" lon="15.5954099">
        <ele>859.5</ele>
        <time>2011-07-03T11:37:10Z</time>
      </trkpt>
      <trkpt lat="46.2878954" lon="15.5955615">
        <ele>868.0</ele>
        <time>2011-07-03T11:37:12Z</time>
      </trkpt>
      <trkpt lat="46.2879294" lon="15.5956328">
        <ele>867.0</ele>
        <time>2011-07-03T11:37:28Z</time>
      </trkpt>
      <trkpt lat="46.2880039" lon="15.5957958">
        <ele>868.5</ele>
        <time>2011-07-03T11:37:40Z</time>
      </trkpt>
      <trkpt lat="46.2880039" lon="15.5957958">
        <ele>868.5</ele>
        <time>2011-07-03T11:38:08Z</time>
      </trkpt>
      <trkpt lat="46.2880039" lon="15.5957958">
        <ele>868.5</ele>
        <time>2011-07-03T11:38:26Z</time>
      </trkpt>
      <trkpt lat="46.2880039" lon="15.5957958">
        <ele>868.5</ele>
        <time>2011-07-03T11:38:44Z</time>
      </trkpt>
      <trkpt lat="46.2880039" lon="15.5957958">
        <ele>868.5</ele>
        <time>2011-07-03T11:39:02Z</time>
      </trkpt>
      <trkpt lat="46.2880039" lon="15.5957958">
        <ele>868.5</ele>
        <time>2011-07-03T11:39:48Z</time>
      </trkpt>
      <trkpt lat="46.2880295" lon="15.5961351">
        <ele>891.5</ele>
        <time>2011-07-03T11:39:52Z</time>
      </trkpt>
      <trkpt lat="46.2880342" lon="15.5961717">
        <ele>892.0</ele>
        <time>2011-07-03T11:39:54Z</time>
      </trkpt>
      <trkpt lat="46.2880366" lon="15.5962515">
        <ele>894.5</ele>
        <time>2011-07-03T11:40:06Z</time>
      </trkpt>
      <trkpt lat="46.2880366" lon="15.5962515">
        <ele>894.5</ele>
        <time>2011-07-03T11:40:48Z</time>
      </trkpt>
      <trkpt lat="46.2881486" lon="15.5963876">
        <ele>904.5</ele>
        <time>2011-07-03T11:40:50Z</time>
      </trkpt>
      <trkpt lat="46.288166" lon="15.5964493">
        <ele>906.0</ele>
        <time>2011-07-03T11:41:00Z</time>
      </trkpt>
      <trkpt lat="46.288157" lon="15.5965169">
        <ele>911.0</ele>
        <time>2011-07-03T11:41:18Z</time>
      </trkpt>
      <trkpt lat="46.288157" lon="15.5965169">
        <ele>911.0</ele>
        <time>2011-07-03T11:41:50Z</time>
      </trkpt>
      <trkpt lat="46.2882022" lon="15.5967192">
        <ele>915.0</ele>
        <time>2011-07-03T11:41:52Z</time>
      </trkpt>
      <trkpt lat="46.2882375" lon="15.5967616">
        <ele>916.5</ele>
        <time>2011-07-03T11:42:00Z</time>
      </trkpt>
      <trkpt lat="46.2882725" lon="15.5968017">
        <ele>919.0</ele>
        <time>2011-07-03T11:42:12Z</time>
      </trkpt>
      <trkpt lat="46.2882725" lon="15.5968017">
        <ele>919.0</ele>
        <time>2011-07-03T11:42:28Z</time>
      </trkpt>
      <trkpt lat="46.2882725" lon="15.5968017">
        <ele>919.0</ele>
        <time>2011-07-03T11:44:38Z</time>
      </trkpt>
      <trkpt lat="46.2882725" lon="15.5968017">
        <ele>919.0</ele>
        <time>2011-07-03T11:44:58Z</time>
      </trkpt>
      <trkpt lat="46.2886764" lon="15.5967231">
        <ele>950.5</ele>
        <time>2011-07-03T11:45:02Z</time>
      </trkpt>
      <trkpt lat="46.2886981" lon="15.5968093">
        <ele>951.5</ele>
        <time>2011-07-03T11:45:12Z</time>
      </trkpt>
      <trkpt lat="46.2887245" lon="15.5968791">
        <ele>953.0</ele>
        <time>2011-07-03T11:45:16Z</time>
      </trkpt>
      <trkpt lat="46.2887773" lon="15.5968994">
        <ele>959.0</ele>
        <time>2011-07-03T11:45:26Z</time>
      </trkpt>
      <trkpt lat="46.2888192" lon="15.5968501">
        <ele>961.0</ele>
        <time>2011-07-03T11:45:34Z</time>
      </trkpt>
      <trkpt lat="46.2888773" lon="15.5968289">
        <ele>961.5</ele>
        <time>2011-07-03T11:45:44Z</time>
      </trkpt>
      <trkpt lat="46.2889709" lon="15.5968253">
        <ele>966.0</ele>
        <time>2011-07-03T11:46:02Z</time>
      </trkpt>
      <trkpt lat="46.2889709" lon="15.5968253">
        <ele>966.0</ele>
        <time>2011-07-03T11:46:42Z</time>
      </trkpt>
      <trkpt lat="46.2889709" lon="15.5968253">
        <ele>966.0</ele>
        <time>2011-07-03T11:47:26Z</time>
      </trkpt>
      <trkpt lat="46.2889709" lon="15.5968253">
        <ele>966.0</ele>
        <time>2011-07-03T11:47:46Z</time>
      </trkpt>
      <trkpt lat="46.2890864" lon="15.5969833">
        <ele>976.0</ele>
        <time>2011-07-03T11:47:48Z</time>
      </trkpt>
      <trkpt lat="46.2891022" lon="15.5970444">
        <ele>978.0</ele>
        <time>2011-07-03T11:47:54Z</time>
      </trkpt>
      <trkpt lat="46.2891654" lon="15.597109">
        <ele>979.5</ele>
        <time>2011-07-03T11:48:00Z</time>
      </trkpt>
      <trkpt lat="46.2892331" lon="15.5971041">
        <ele>980.5</ele>
        <time>2011-07-03T11:48:08Z</time>
      </trkpt>
      <trkpt lat="46.2892331" lon="15.5971041">
        <ele>980.5</ele>
        <time>2011-07-03T11:48:24Z</time>
      </trkpt>
      <trkpt lat="46.2892331" lon="15.5971041">
        <ele>980.5</ele>
        <time>2011-07-03T11:50:20Z</time>
      </trkpt>
      <trkpt lat="46.2892331" lon="15.5971041">
        <ele>980.5</ele>
        <time>2011-07-03T11:50:40Z</time>
      </trkpt>
      <trkpt lat="46.2892331" lon="15.5971041">
        <ele>980.5</ele>
        <time>2011-07-03T11:51:00Z</time>
      </trkpt>
      <trkpt lat="46.2892331" lon="15.5971041">
        <ele>980.5</ele>
        <time>2011-07-03T11:51:20Z</time>
      </trkpt>
      <trkpt lat="46.2892331" lon="15.5971041">
        <ele>980.5</ele>
        <time>2011-07-03T11:51:42Z</time>
      </trkpt>
      <trkpt lat="46.2892331" lon="15.5971041">
        <ele>980.5</ele>
        <time>2011-07-03T11:52:02Z</time>
      </trkpt>
      <trkpt lat="46.289233" lon="15.5977312">
        <ele>1011.0</ele>
        <time>2011-07-03T11:52:06Z</time>
      </trkpt>
      <trkpt lat="46.2892098" lon="15.5978169">
        <ele>1015.0</ele>
        <time>2011-07-03T11:52:12Z</time>
      </trkpt>
      <trkpt lat="46.289196" lon="15.597969">
        <ele>1016.0</ele>
        <time>2011-07-03T11:52:18Z</time>
      </trkpt>
      <trkpt lat="46.2891704" lon="15.5980363">
        <ele>1016.5</ele>
        <time>2011-07-03T11:52:28Z</time>
      </trkpt>
      <trkpt lat="46.289125" lon="15.5980666">
        <ele>1018.0</ele>
        <time>2011-07-03T11:52:32Z</time>
      </trkpt>
      <trkpt lat="46.2890599" lon="15.5981662">
        <ele>1018.5</ele>
        <time>2011-07-03T11:52:40Z</time>
      </trkpt>
      <trkpt lat="46.2890375" lon="15.5981951">
        <ele>1018.5</ele>
        <time>2011-07-03T11:52:42Z</time>
      </trkpt>
      <trkpt lat="46.2889975" lon="15.5982592">
        <ele>1021.5</ele>
        <time>2011-07-03T11:52:52Z</time>
      </trkpt>
      <trkpt lat="46.2889624" lon="15.5983361">
        <ele>1026.0</ele>
        <time>2011-07-03T11:53:02Z</time>
      </trkpt>
      <trkpt lat="46.2889626" lon="15.5984577">
        <ele>1028.0</ele>
        <time>2011-07-03T11:53:06Z</time>
      </trkpt>
      <trkpt lat="46.2889099" lon="15.5985749">
        <ele>1031.5</ele>
        <time>2011-07-03T11:53:12Z</time>
      </trkpt>
      <trkpt lat="46.288896" lon="15.5986025">
        <ele>1032.0</ele>
        <time>2011-07-03T11:53:14Z</time>
      </trkpt>
      <trkpt lat="46.2888586" lon="15.598644">
        <ele>1032.5</ele>
        <time>2011-07-03T11:53:18Z</time>
      </trkpt>
      <trkpt lat="46.2887735" lon="15.59874">
        <ele>1032.5</ele>
        <time>2011-07-03T11:53:30Z</time>
      </trkpt>
      <trkpt lat="46.2887522" lon="15.5988385">
        <ele>1033.0</ele>
        <time>2011-07-03T11:53:36Z</time>
      </trkpt>
      <trkpt lat="46.288764" lon="15.598918">
        <ele>1032.5</ele>
        <time>2011-07-03T11:53:40Z</time>
      </trkpt>
      <trkpt lat="46.2887122" lon="15.59896">
        <ele>1033.5</ele>
        <time>2011-07-03T11:53:50Z</time>
      </trkpt>
      <trkpt lat="46.2886598" lon="15.5990816">
        <ele>1032.5</ele>
        <time>2011-07-03T11:53:58Z</time>
      </trkpt>
      <trkpt lat="46.2886708" lon="15.5992057">
        <ele>1031.0</ele>
        <time>2011-07-03T11:54:00Z</time>
      </trkpt>
      <trkpt lat="46.2886481" lon="15.5993787">
        <ele>1029.0</ele>
        <time>2011-07-03T11:54:10Z</time>
      </trkpt>
      <trkpt lat="46.288641" lon="15.5994574">
        <ele>1027.5</ele>
        <time>2011-07-03T11:54:12Z</time>
      </trkpt>
      <trkpt lat="46.2886109" lon="15.5995798">
        <ele>1026.5</ele>
        <time>2011-07-03T11:54:18Z</time>
      </trkpt>
      <trkpt lat="46.2885605" lon="15.5995883">
        <ele>1027.0</ele>
        <time>2011-07-03T11:54:24Z</time>
      </trkpt>
      <trkpt lat="46.2885113" lon="15.5997044">
        <ele>1028.5</ele>
        <time>2011-07-03T11:54:32Z</time>
      </trkpt>
      <trkpt lat="46.288494" lon="15.599749">
        <ele>1029.0</ele>
        <time>2011-07-03T11:54:36Z</time>
      </trkpt>
      <trkpt lat="46.2884665" lon="15.5998544">
        <ele>1029.5</ele>
        <time>2011-07-03T11:54:44Z</time>
      </trkpt>
      <trkpt lat="46.2884583" lon="15.5998963">
        <ele>1029.5</ele>
        <time>2011-07-03T11:54:46Z</time>
      </trkpt>
      <trkpt lat="46.2884283" lon="15.5999672">
        <ele>1030.5</ele>
        <time>2011-07-03T11:54:56Z</time>
      </trkpt>
      <trkpt lat="46.2884159" lon="15.6000366">
        <ele>1030.0</ele>
        <time>2011-07-03T11:55:00Z</time>
      </trkpt>
      <trkpt lat="46.2884068" lon="15.600152">
        <ele>1028.5</ele>
        <time>2011-07-03T11:55:08Z</time>
      </trkpt>
      <trkpt lat="46.2883784" lon="15.6002215">
        <ele>1028.0</ele>
        <time>2011-07-03T11:55:12Z</time>
      </trkpt>
      <trkpt lat="46.2883366" lon="15.6003184">
        <ele>1027.5</ele>
        <time>2011-07-03T11:55:20Z</time>
      </trkpt>
      <trkpt lat="46.2883185" lon="15.6003939">
        <ele>1029.0</ele>
        <time>2011-07-03T11:55:30Z</time>
      </trkpt>
      <trkpt lat="46.2882672" lon="15.6005048">
        <ele>1029.0</ele>
        <time>2011-07-03T11:55:40Z</time>
      </trkpt>
      <trkpt lat="46.288231" lon="15.6006335">
        <ele>1031.0</ele>
        <time>2011-07-03T11:55:54Z</time>
      </trkpt>
      <trkpt lat="46.2881621" lon="15.6006783">
        <ele>1033.0</ele>
        <time>2011-07-03T11:56:02Z</time>
      </trkpt>
      <trkpt lat="46.2881196" lon="15.6007706">
        <ele>1034.0</ele>
        <time>2011-07-03T11:56:08Z</time>
      </trkpt>
      <trkpt lat="46.2880957" lon="15.600853">
        <ele>1036.0</ele>
        <time>2011-07-03T11:56:16Z</time>
      </trkpt>
      <trkpt lat="46.2881339" lon="15.6010091">
        <ele>1033.5</ele>
        <time>2011-07-03T11:56:20Z</time>
      </trkpt>
      <trkpt lat="46.2880135" lon="15.6011206">
        <ele>1037.0</ele>
        <time>2011-07-03T11:56:58Z</time>
      </trkpt>
      <trkpt lat="46.2880567" lon="15.6013083">
        <ele>1033.5</ele>
        <time>2011-07-03T11:57:02Z</time>
      </trkpt>
      <trkpt lat="46.2880772" lon="15.6013901">
        <ele>1033.0</ele>
        <time>2011-07-03T11:57:08Z</time>
      </trkpt>
      <trkpt lat="46.2880772" lon="15.6013901">
        <ele>1033.0</ele>
        <time>2011-07-03T11:57:30Z</time>
      </trkpt>
      <trkpt lat="46.2880842" lon="15.6014565">
        <ele>1031.0</ele>
        <time>2011-07-03T11:57:46Z</time>
      </trkpt>
      <trkpt lat="46.2880138" lon="15.6014967">
        <ele>1029.0</ele>
        <time>2011-07-03T11:57:56Z</time>
      </trkpt>
      <trkpt lat="46.2879828" lon="15.6015156">
        <ele>1029.5</ele>
        <time>2011-07-03T11:58:08Z</time>
      </trkpt>
      <trkpt lat="46.2879437" lon="15.601556">
        <ele>1030.0</ele>
        <time>2011-07-03T11:58:12Z</time>
      </trkpt>
      <trkpt lat="46.2879037" lon="15.6015934">
        <ele>1030.5</ele>
        <time>2011-07-03T11:58:24Z</time>
      </trkpt>
      <trkpt lat="46.2878283" lon="15.6016528">
        <ele>1033.0</ele>
        <time>2011-07-03T11:58:46Z</time>
      </trkpt>
      <trkpt lat="46.2877799" lon="15.6016771">
        <ele>1034.0</ele>
        <time>2011-07-03T11:58:54Z</time>
      </trkpt>
      <trkpt lat="46.2877343" lon="15.6017061">
        <ele>1035.5</ele>
        <time>2011-07-03T11:59:00Z</time>
      </trkpt>
      <trkpt lat="46.2876948" lon="15.6017688">
        <ele>1037.0</ele>
        <time>2011-07-03T11:59:08Z</time>
      </trkpt>
      <trkpt lat="46.2876151" lon="15.6018307">
        <ele>1037.5</ele>
        <time>2011-07-03T11:59:22Z</time>
      </trkpt>
      <trkpt lat="46.2875689" lon="15.6018896">
        <ele>1037.0</ele>
        <time>2011-07-03T11:59:28Z</time>
      </trkpt>
      <trkpt lat="46.2875385" lon="15.601934">
        <ele>1037.0</ele>
        <time>2011-07-03T11:59:32Z</time>
      </trkpt>
      <trkpt lat="46.2874919" lon="15.6019547">
        <ele>1036.5</ele>
        <time>2011-07-03T11:59:40Z</time>
      </trkpt>
      <trkpt lat="46.2873941" lon="15.6019926">
        <ele>1037.5</ele>
        <time>2011-07-03T11:59:50Z</time>
      </trkpt>
      <trkpt lat="46.287343" lon="15.6019872">
        <ele>1038.5</ele>
        <time>2011-07-03T11:59:56Z</time>
      </trkpt>
      <trkpt lat="46.2872867" lon="15.6019774">
        <ele>1040.0</ele>
        <time>2011-07-03T12:00:04Z</time>
      </trkpt>
      <trkpt lat="46.2872402" lon="15.6020034">
        <ele>1041.0</ele>
        <time>2011-07-03T12:00:10Z</time>
      </trkpt>
      <trkpt lat="46.2871926" lon="15.602038">
        <ele>1043.5</ele>
        <time>2011-07-03T12:00:18Z</time>
      </trkpt>
      <trkpt lat="46.2871545" lon="15.6021341">
        <ele>1039.5</ele>
        <time>2011-07-03T12:00:24Z</time>
      </trkpt>
      <trkpt lat="46.287097" lon="15.6023282">
        <ele>1040.0</ele>
        <time>2011-07-03T12:00:34Z</time>
      </trkpt>
      <trkpt lat="46.2870736" lon="15.6023592">
        <ele>1040.5</ele>
        <time>2011-07-03T12:00:38Z</time>
      </trkpt>
      <trkpt lat="46.287094" lon="15.6024641">
        <ele>1037.0</ele>
        <time>2011-07-03T12:00:46Z</time>
      </trkpt>
      <trkpt lat="46.2871219" lon="15.6025386">
        <ele>1034.5</ele>
        <time>2011-07-03T12:00:50Z</time>
      </trkpt>
      <trkpt lat="46.2871219" lon="15.6025386">
        <ele>1034.5</ele>
        <time>2011-07-03T12:01:54Z</time>
      </trkpt>
      <trkpt lat="46.2868753" lon="15.6029226">
        <ele>1027.0</ele>
        <time>2011-07-03T12:01:58Z</time>
      </trkpt>
      <trkpt lat="46.2868279" lon="15.6029472">
        <ele>1029.5</ele>
        <time>2011-07-03T12:02:10Z</time>
      </trkpt>
      <trkpt lat="46.2867547" lon="15.603088">
        <ele>1032.5</ele>
        <time>2011-07-03T12:02:18Z</time>
      </trkpt>
      <trkpt lat="46.2867387" lon="15.6031897">
        <ele>1030.5</ele>
        <time>2011-07-03T12:02:26Z</time>
      </trkpt>
      <trkpt lat="46.2866814" lon="15.6032413">
        <ele>1032.0</ele>
        <time>2011-07-03T12:02:36Z</time>
      </trkpt>
      <trkpt lat="46.2866306" lon="15.6033073">
        <ele>1032.5</ele>
        <time>2011-07-03T12:02:40Z</time>
      </trkpt>
      <trkpt lat="46.2865929" lon="15.6033655">
        <ele>1032.5</ele>
        <time>2011-07-03T12:02:48Z</time>
      </trkpt>
      <trkpt lat="46.2865929" lon="15.6033655">
        <ele>1032.5</ele>
        <time>2011-07-03T12:03:06Z</time>
      </trkpt>
      <trkpt lat="46.2865929" lon="15.6033655">
        <ele>1032.5</ele>
        <time>2011-07-03T12:03:30Z</time>
      </trkpt>
      <trkpt lat="46.286503" lon="15.6035575">
        <ele>1030.0</ele>
        <time>2011-07-03T12:03:32Z</time>
      </trkpt>
      <trkpt lat="46.2864303" lon="15.6034353">
        <ele>1026.0</ele>
        <time>2011-07-03T12:03:44Z</time>
      </trkpt>
      <trkpt lat="46.2863672" lon="15.6034713">
        <ele>1025.0</ele>
        <time>2011-07-03T12:03:50Z</time>
      </trkpt>
      <trkpt lat="46.2863081" lon="15.6035308">
        <ele>1023.5</ele>
        <time>2011-07-03T12:03:54Z</time>
      </trkpt>
      <trkpt lat="46.2863081" lon="15.6035308">
        <ele>1023.5</ele>
        <time>2011-07-03T12:05:18Z</time>
      </trkpt>
      <trkpt lat="46.2863001" lon="15.6031984">
        <ele>1042.5</ele>
        <time>2011-07-03T12:05:22Z</time>
      </trkpt>
      <trkpt lat="46.2863085" lon="15.6031021">
        <ele>1041.0</ele>
        <time>2011-07-03T12:05:28Z</time>
      </trkpt>
      <trkpt lat="46.2862661" lon="15.6030012">
        <ele>1044.5</ele>
        <time>2011-07-03T12:05:42Z</time>
      </trkpt>
      <trkpt lat="46.2863134" lon="15.6028866">
        <ele>1036.5</ele>
        <time>2011-07-03T12:05:48Z</time>
      </trkpt>
      <trkpt lat="46.2863523" lon="15.6028245">
        <ele>1030.0</ele>
        <time>2011-07-03T12:05:54Z</time>
      </trkpt>
      <trkpt lat="46.2863833" lon="15.6026995">
        <ele>1027.0</ele>
        <time>2011-07-03T12:05:58Z</time>
      </trkpt>
      <trkpt lat="46.2863988" lon="15.6026229">
        <ele>1031.0</ele>
        <time>2011-07-03T12:06:10Z</time>
      </trkpt>
      <trkpt lat="46.2864435" lon="15.6025738">
        <ele>1031.0</ele>
        <time>2011-07-03T12:06:14Z</time>
      </trkpt>
      <trkpt lat="46.2864342" lon="15.6025039">
        <ele>1030.0</ele>
        <time>2011-07-03T12:06:22Z</time>
      </trkpt>
      <trkpt lat="46.2864206" lon="15.6024317">
        <ele>1027.5</ele>
        <time>2011-07-03T12:06:30Z</time>
      </trkpt>
      <trkpt lat="46.2864018" lon="15.6023396">
        <ele>1028.0</ele>
        <time>2011-07-03T12:06:38Z</time>
      </trkpt>
      <trkpt lat="46.2863346" lon="15.6022412">
        <ele>1036.0</ele>
        <time>2011-07-03T12:06:46Z</time>
      </trkpt>
      <trkpt lat="46.2863234" lon="15.6021394">
        <ele>1033.5</ele>
        <time>2011-07-03T12:06:54Z</time>
      </trkpt>
      <trkpt lat="46.2863392" lon="15.6020697">
        <ele>1031.5</ele>
        <time>2011-07-03T12:07:02Z</time>
      </trkpt>
      <trkpt lat="46.2862965" lon="15.6020066">
        <ele>1030.5</ele>
        <time>2011-07-03T12:07:08Z</time>
      </trkpt>
      <trkpt lat="46.2862965" lon="15.6020066">
        <ele>1030.5</ele>
        <time>2011-07-03T12:07:34Z</time>
      </trkpt>
      <trkpt lat="46.2861962" lon="15.6018431">
        <ele>1023.5</ele>
        <time>2011-07-03T12:07:36Z</time>
      </trkpt>
      <trkpt lat="46.2861414" lon="15.601746">
        <ele>1018.0</ele>
        <time>2011-07-03T12:07:50Z</time>
      </trkpt>
      <trkpt lat="46.286071" lon="15.6017479">
        <ele>1016.0</ele>
        <time>2011-07-03T12:08:02Z</time>
      </trkpt>
      <trkpt lat="46.2860243" lon="15.6017825">
        <ele>1017.5</ele>
        <time>2011-07-03T12:08:16Z</time>
      </trkpt>
      <trkpt lat="46.285925" lon="15.6017674">
        <ele>1022.5</ele>
        <time>2011-07-03T12:08:34Z</time>
      </trkpt>
      <trkpt lat="46.2858731" lon="15.6017758">
        <ele>1025.5</ele>
        <time>2011-07-03T12:08:42Z</time>
      </trkpt>
      <trkpt lat="46.2858162" lon="15.6017303">
        <ele>1026.0</ele>
        <time>2011-07-03T12:08:48Z</time>
      </trkpt>
      <trkpt lat="46.2858162" lon="15.6017303">
        <ele>1026.0</ele>
        <time>2011-07-03T12:09:30Z</time>
      </trkpt>
      <trkpt lat="46.2857083" lon="15.6015734">
        <ele>1026.5</ele>
        <time>2011-07-03T12:09:32Z</time>
      </trkpt>
      <trkpt lat="46.2857341" lon="15.6014863">
        <ele>1025.5</ele>
        <time>2011-07-03T12:09:38Z</time>
      </trkpt>
      <trkpt lat="46.285744" lon="15.6013654">
        <ele>1030.5</ele>
        <time>2011-07-03T12:09:44Z</time>
      </trkpt>
      <trkpt lat="46.2857482" lon="15.6012642">
        <ele>1030.0</ele>
        <time>2011-07-03T12:09:52Z</time>
      </trkpt>
      <trkpt lat="46.2856805" lon="15.6011906">
        <ele>1026.0</ele>
        <time>2011-07-03T12:10:02Z</time>
      </trkpt>
      <trkpt lat="46.285641" lon="15.6011495">
        <ele>1025.0</ele>
        <time>2011-07-03T12:10:04Z</time>
      </trkpt>
      <trkpt lat="46.2856232" lon="15.6010601">
        <ele>1021.0</ele>
        <time>2011-07-03T12:10:16Z</time>
      </trkpt>
      <trkpt lat="46.2855736" lon="15.6009405">
        <ele>1015.5</ele>
        <time>2011-07-03T12:10:32Z</time>
      </trkpt>
      <trkpt lat="46.2855407" lon="15.6008645">
        <ele>1013.0</ele>
        <time>2011-07-03T12:10:38Z</time>
      </trkpt>
      <trkpt lat="46.2854837" lon="15.6008333">
        <ele>1013.0</ele>
        <time>2011-07-03T12:10:42Z</time>
      </trkpt>
      <trkpt lat="46.2854422" lon="15.6007736">
        <ele>1015.0</ele>
        <time>2011-07-03T12:10:50Z</time>
      </trkpt>
      <trkpt lat="46.2854209" lon="15.6006989">
        <ele>1009.5</ele>
        <time>2011-07-03T12:11:00Z</time>
      </trkpt>
      <trkpt lat="46.2854152" lon="15.6006254">
        <ele>1006.0</ele>
        <time>2011-07-03T12:11:06Z</time>
      </trkpt>
      <trkpt lat="46.285471" lon="15.600563">
        <ele>1003.5</ele>
        <time>2011-07-03T12:11:16Z</time>
      </trkpt>
      <trkpt lat="46.2854597" lon="15.6004874">
        <ele>999.5</ele>
        <time>2011-07-03T12:11:20Z</time>
      </trkpt>
      <trkpt lat="46.2854093" lon="15.6004077">
        <ele>996.0</ele>
        <time>2011-07-03T12:11:24Z</time>
      </trkpt>
      <trkpt lat="46.2853752" lon="15.6003116">
        <ele>992.0</ele>
        <time>2011-07-03T12:11:30Z</time>
      </trkpt>
      <trkpt lat="46.2854182" lon="15.6002352">
        <ele>987.0</ele>
        <time>2011-07-03T12:11:32Z</time>
      </trkpt>
      <trkpt lat="46.2854182" lon="15.6002352">
        <ele>987.0</ele>
        <time>2011-07-03T12:12:02Z</time>
      </trkpt>
      <trkpt lat="46.2854182" lon="15.6002352">
        <ele>987.0</ele>
        <time>2011-07-03T12:12:36Z</time>
      </trkpt>
      <trkpt lat="46.2855913" lon="15.600092">
        <ele>966.5</ele>
        <time>2011-07-03T12:12:40Z</time>
      </trkpt>
      <trkpt lat="46.2855956" lon="15.5999122">
        <ele>953.5</ele>
        <time>2011-07-03T12:12:44Z</time>
      </trkpt>
      <trkpt lat="46.2856622" lon="15.5997859">
        <ele>948.0</ele>
        <time>2011-07-03T12:12:48Z</time>
      </trkpt>
      <trkpt lat="46.2856817" lon="15.5996281">
        <ele>940.0</ele>
        <time>2011-07-03T12:12:50Z</time>
      </trkpt>
      <trkpt lat="46.2856622" lon="15.5995372">
        <ele>931.0</ele>
        <time>2011-07-03T12:13:00Z</time>
      </trkpt>
      <trkpt lat="46.2856134" lon="15.5995859">
        <ele>925.0</ele>
        <time>2011-07-03T12:13:12Z</time>
      </trkpt>
      <trkpt lat="46.2855617" lon="15.5995706">
        <ele>917.5</ele>
        <time>2011-07-03T12:13:24Z</time>
      </trkpt>
      <trkpt lat="46.2854779" lon="15.5995304">
        <ele>915.0</ele>
        <time>2011-07-03T12:13:40Z</time>
      </trkpt>
      <trkpt lat="46.2855095" lon="15.5993461">
        <ele>906.5</ele>
        <time>2011-07-03T12:13:54Z</time>
      </trkpt>
      <trkpt lat="46.2854729" lon="15.599232">
        <ele>902.0</ele>
        <time>2011-07-03T12:13:58Z</time>
      </trkpt>
      <trkpt lat="46.2853551" lon="15.5991409">
        <ele>903.0</ele>
        <time>2011-07-03T12:14:12Z</time>
      </trkpt>
      <trkpt lat="46.2852644" lon="15.5990866">
        <ele>899.0</ele>
        <time>2011-07-03T12:14:36Z</time>
      </trkpt>
      <trkpt lat="46.2852644" lon="15.5990866">
        <ele>899.0</ele>
        <time>2011-07-03T12:15:30Z</time>
      </trkpt>
      <trkpt lat="46.2851499" lon="15.5987392">
        <ele>893.0</ele>
        <time>2011-07-03T12:15:34Z</time>
      </trkpt>
      <trkpt lat="46.2852076" lon="15.598685">
        <ele>894.0</ele>
        <time>2011-07-03T12:15:48Z</time>
      </trkpt>
      <trkpt lat="46.2851715" lon="15.5985264">
        <ele>893.0</ele>
        <time>2011-07-03T12:15:58Z</time>
      </trkpt>
      <trkpt lat="46.2851715" lon="15.5985264">
        <ele>893.0</ele>
        <time>2011-07-03T12:16:24Z</time>
      </trkpt>
      <trkpt lat="46.2851715" lon="15.5985264">
        <ele>893.0</ele>
        <time>2011-07-03T12:16:46Z</time>
      </trkpt>
      <trkpt lat="46.2851715" lon="15.5985264">
        <ele>893.0</ele>
        <time>2011-07-03T12:17:04Z</time>
      </trkpt>
      <trkpt lat="46.2851715" lon="15.5985264">
        <ele>893.0</ele>
        <time>2011-07-03T12:17:22Z</time>
      </trkpt>
      <trkpt lat="46.2851044" lon="15.5983411">
        <ele>870.5</ele>
        <time>2011-07-03T12:17:24Z</time>
      </trkpt>
      <trkpt lat="46.2850893" lon="15.5982607">
        <ele>871.5</ele>
        <time>2011-07-03T12:17:34Z</time>
      </trkpt>
      <trkpt lat="46.2850287" lon="15.5982365">
        <ele>871.0</ele>
        <time>2011-07-03T12:17:44Z</time>
      </trkpt>
      <trkpt lat="46.2848916" lon="15.5980247">
        <ele>867.0</ele>
        <time>2011-07-03T12:18:04Z</time>
      </trkpt>
      <trkpt lat="46.2848503" lon="15.5979314">
        <ele>865.5</ele>
        <time>2011-07-03T12:18:08Z</time>
      </trkpt>
      <trkpt lat="46.2847954" lon="15.597793">
        <ele>865.0</ele>
        <time>2011-07-03T12:18:16Z</time>
      </trkpt>
      <trkpt lat="46.2846975" lon="15.5977224">
        <ele>857.0</ele>
        <time>2011-07-03T12:18:30Z</time>
      </trkpt>
      <trkpt lat="46.2844921" lon="15.59777">
        <ele>851.0</ele>
        <time>2011-07-03T12:18:52Z</time>
      </trkpt>
      <trkpt lat="46.2844415" lon="15.5978247">
        <ele>848.0</ele>
        <time>2011-07-03T12:18:56Z</time>
      </trkpt>
      <trkpt lat="46.2843963" lon="15.5978272">
        <ele>843.0</ele>
        <time>2011-07-03T12:19:10Z</time>
      </trkpt>
      <trkpt lat="46.2842953" lon="15.5977957">
        <ele>842.5</ele>
        <time>2011-07-03T12:19:18Z</time>
      </trkpt>
      <trkpt lat="46.2842135" lon="15.5978134">
        <ele>841.5</ele>
        <time>2011-07-03T12:19:24Z</time>
      </trkpt>
      <trkpt lat="46.2841672" lon="15.5978654">
        <ele>832.5</ele>
        <time>2011-07-03T12:19:38Z</time>
      </trkpt>
      <trkpt lat="46.2840885" lon="15.5978751">
        <ele>838.0</ele>
        <time>2011-07-03T12:19:46Z</time>
      </trkpt>
      <trkpt lat="46.2840388" lon="15.5978829">
        <ele>838.0</ele>
        <time>2011-07-03T12:19:50Z</time>
      </trkpt>
      <trkpt lat="46.2839573" lon="15.5979242">
        <ele>837.0</ele>
        <time>2011-07-03T12:20:00Z</time>
      </trkpt>
      <trkpt lat="46.2837521" lon="15.5979558">
        <ele>832.0</ele>
        <time>2011-07-03T12:20:22Z</time>
      </trkpt>
      <trkpt lat="46.2837096" lon="15.5979898">
        <ele>829.5</ele>
        <time>2011-07-03T12:20:28Z</time>
      </trkpt>
      <trkpt lat="46.2836575" lon="15.598031">
        <ele>829.0</ele>
        <time>2011-07-03T12:20:34Z</time>
      </trkpt>
      <trkpt lat="46.2835814" lon="15.5980771">
        <ele>828.0</ele>
        <time>2011-07-03T12:20:38Z</time>
      </trkpt>
      <trkpt lat="46.2834523" lon="15.5980681">
        <ele>829.0</ele>
        <time>2011-07-03T12:20:52Z</time>
      </trkpt>
      <trkpt lat="46.2833947" lon="15.5980775">
        <ele>827.5</ele>
        <time>2011-07-03T12:20:58Z</time>
      </trkpt>
      <trkpt lat="46.2833483" lon="15.5980971">
        <ele>825.5</ele>
        <time>2011-07-03T12:21:08Z</time>
      </trkpt>
      <trkpt lat="46.2832979" lon="15.5980629">
        <ele>825.0</ele>
        <time>2011-07-03T12:21:12Z</time>
      </trkpt>
      <trkpt lat="46.2832141" lon="15.5980535">
        <ele>823.5</ele>
        <time>2011-07-03T12:21:18Z</time>
      </trkpt>
      <trkpt lat="46.2831059" lon="15.5980498">
        <ele>824.0</ele>
        <time>2011-07-03T12:21:26Z</time>
      </trkpt>
      <trkpt lat="46.283038" lon="15.5979931">
        <ele>823.5</ele>
        <time>2011-07-03T12:21:34Z</time>
      </trkpt>
      <trkpt lat="46.2829686" lon="15.5979715">
        <ele>819.5</ele>
        <time>2011-07-03T12:21:46Z</time>
      </trkpt>
      <trkpt lat="46.282905" lon="15.5979782">
        <ele>817.5</ele>
        <time>2011-07-03T12:21:52Z</time>
      </trkpt>
      <trkpt lat="46.2828721" lon="15.5982458">
        <ele>805.0</ele>
        <time>2011-07-03T12:22:08Z</time>
      </trkpt>
      <trkpt lat="46.2828721" lon="15.5982458">
        <ele>805.0</ele>
        <time>2011-07-03T12:22:24Z</time>
      </trkpt>
      <trkpt lat="46.2828537" lon="15.598159">
        <ele>798.5</ele>
        <time>2011-07-03T12:22:28Z</time>
      </trkpt>
      <trkpt lat="46.2829002" lon="15.5979784">
        <ele>801.0</ele>
        <time>2011-07-03T12:22:58Z</time>
      </trkpt>
      <trkpt lat="46.282911" lon="15.5979484">
        <ele>801.0</ele>
        <time>2011-07-03T12:23:02Z</time>
      </trkpt>
      <trkpt lat="46.2829228" lon="15.5979122">
        <ele>799.5</ele>
        <time>2011-07-03T12:23:08Z</time>
      </trkpt>
      <trkpt lat="46.2829401" lon="15.5978253">
        <ele>799.5</ele>
        <time>2011-07-03T12:23:16Z</time>
      </trkpt>
      <trkpt lat="46.2829484" lon="15.5977347">
        <ele>796.5</ele>
        <time>2011-07-03T12:23:22Z</time>
      </trkpt>
      <trkpt lat="46.2829551" lon="15.5975466">
        <ele>794.5</ele>
        <time>2011-07-03T12:23:42Z</time>
      </trkpt>
      <trkpt lat="46.2829861" lon="15.5973585">
        <ele>791.0</ele>
        <time>2011-07-03T12:24:06Z</time>
      </trkpt>
      <trkpt lat="46.2829944" lon="15.5973033">
        <ele>792.5</ele>
        <time>2011-07-03T12:24:10Z</time>
      </trkpt>
      <trkpt lat="46.2830262" lon="15.5971744">
        <ele>790.0</ele>
        <time>2011-07-03T12:24:30Z</time>
      </trkpt>
      <trkpt lat="46.2830317" lon="15.5970711">
        <ele>793.5</ele>
        <time>2011-07-03T12:24:44Z</time>
      </trkpt>
      <trkpt lat="46.2829987" lon="15.5970181">
        <ele>794.5</ele>
        <time>2011-07-03T12:24:52Z</time>
      </trkpt>
      <trkpt lat="46.2829697" lon="15.5969403">
        <ele>794.0</ele>
        <time>2011-07-03T12:25:00Z</time>
      </trkpt>
      <trkpt lat="46.2829567" lon="15.5967876">
        <ele>788.0</ele>
        <time>2011-07-03T12:25:04Z</time>
      </trkpt>
      <trkpt lat="46.282941" lon="15.5966128">
        <ele>786.5</ele>
        <time>2011-07-03T12:25:24Z</time>
      </trkpt>
      <trkpt lat="46.2828682" lon="15.5965104">
        <ele>784.5</ele>
        <time>2011-07-03T12:25:26Z</time>
      </trkpt>
      <trkpt lat="46.2829233" lon="15.5961939">
        <ele>776.5</ele>
        <time>2011-07-03T12:25:40Z</time>
      </trkpt>
      <trkpt lat="46.2829561" lon="15.5961177">
        <ele>776.0</ele>
        <time>2011-07-03T12:25:46Z</time>
      </trkpt>
      <trkpt lat="46.2829986" lon="15.5960714">
        <ele>775.5</ele>
        <time>2011-07-03T12:25:52Z</time>
      </trkpt>
      <trkpt lat="46.2831711" lon="15.5960396">
        <ele>775.0</ele>
        <time>2011-07-03T12:26:02Z</time>
      </trkpt>
      <trkpt lat="46.2832214" lon="15.5958909">
        <ele>773.0</ele>
        <time>2011-07-03T12:26:12Z</time>
      </trkpt>
      <trkpt lat="46.2832474" lon="15.595809">
        <ele>774.5</ele>
        <time>2011-07-03T12:26:18Z</time>
      </trkpt>
      <trkpt lat="46.2832836" lon="15.595743">
        <ele>772.5</ele>
        <time>2011-07-03T12:26:22Z</time>
      </trkpt>
      <trkpt lat="46.2832743" lon="15.5956616">
        <ele>774.0</ele>
        <time>2011-07-03T12:26:28Z</time>
      </trkpt>
      <trkpt lat="46.2831926" lon="15.5955445">
        <ele>774.5</ele>
        <time>2011-07-03T12:26:36Z</time>
      </trkpt>
      <trkpt lat="46.2831571" lon="15.5954634">
        <ele>772.5</ele>
        <time>2011-07-03T12:26:42Z</time>
      </trkpt>
      <trkpt lat="46.2831261" lon="15.5952921">
        <ele>772.0</ele>
        <time>2011-07-03T12:26:54Z</time>
      </trkpt>
      <trkpt lat="46.2831317" lon="15.5951799">
        <ele>772.0</ele>
        <time>2011-07-03T12:27:02Z</time>
      </trkpt>
      <trkpt lat="46.2831356" lon="15.5951075">
        <ele>771.0</ele>
        <time>2011-07-03T12:27:06Z</time>
      </trkpt>
      <trkpt lat="46.2830901" lon="15.5950658">
        <ele>767.5</ele>
        <time>2011-07-03T12:27:14Z</time>
      </trkpt>
      <trkpt lat="46.2830991" lon="15.5949488">
        <ele>765.0</ele>
        <time>2011-07-03T12:27:24Z</time>
      </trkpt>
      <trkpt lat="46.2831114" lon="15.59488">
        <ele>763.5</ele>
        <time>2011-07-03T12:27:28Z</time>
      </trkpt>
      <trkpt lat="46.2831368" lon="15.5947443">
        <ele>763.0</ele>
        <time>2011-07-03T12:27:34Z</time>
      </trkpt>
      <trkpt lat="46.2831594" lon="15.5946825">
        <ele>761.0</ele>
        <time>2011-07-03T12:27:38Z</time>
      </trkpt>
      <trkpt lat="46.2831501" lon="15.594566">
        <ele>755.0</ele>
        <time>2011-07-03T12:27:48Z</time>
      </trkpt>
      <trkpt lat="46.2831738" lon="15.5945017">
        <ele>751.0</ele>
        <time>2011-07-03T12:27:52Z</time>
      </trkpt>
      <trkpt lat="46.2832253" lon="15.5945063">
        <ele>750.0</ele>
        <time>2011-07-03T12:28:02Z</time>
      </trkpt>
      <trkpt lat="46.2832605" lon="15.5943742">
        <ele>746.0</ele>
        <time>2011-07-03T12:28:06Z</time>
      </trkpt>
      <trkpt lat="46.2833249" lon="15.594253">
        <ele>742.0</ele>
        <time>2011-07-03T12:28:10Z</time>
      </trkpt>
      <trkpt lat="46.2833471" lon="15.594214">
        <ele>741.0</ele>
        <time>2011-07-03T12:28:12Z</time>
      </trkpt>
      <trkpt lat="46.2833763" lon="15.5941117">
        <ele>737.0</ele>
        <time>2011-07-03T12:28:16Z</time>
      </trkpt>
      <trkpt lat="46.2833884" lon="15.5940742">
        <ele>735.5</ele>
        <time>2011-07-03T12:28:20Z</time>
      </trkpt>
      <trkpt lat="46.2834104" lon="15.5939679">
        <ele>732.0</ele>
        <time>2011-07-03T12:28:24Z</time>
      </trkpt>
      <trkpt lat="46.2834225" lon="15.5939058">
        <ele>730.5</ele>
        <time>2011-07-03T12:28:26Z</time>
      </trkpt>
      <trkpt lat="46.283442" lon="15.5938453">
        <ele>728.5</ele>
        <time>2011-07-03T12:28:28Z</time>
      </trkpt>
      <trkpt lat="46.2834793" lon="15.5937556">
        <ele>725.5</ele>
        <time>2011-07-03T12:28:36Z</time>
      </trkpt>
      <trkpt lat="46.2834773" lon="15.5936226">
        <ele>726.0</ele>
        <time>2011-07-03T12:28:44Z</time>
      </trkpt>
      <trkpt lat="46.2835088" lon="15.5935599">
        <ele>726.5</ele>
        <time>2011-07-03T12:28:48Z</time>
      </trkpt>
      <trkpt lat="46.2835642" lon="15.5933992">
        <ele>726.0</ele>
        <time>2011-07-03T12:28:58Z</time>
      </trkpt>
      <trkpt lat="46.2835728" lon="15.5933573">
        <ele>726.0</ele>
        <time>2011-07-03T12:29:00Z</time>
      </trkpt>
      <trkpt lat="46.2835969" lon="15.5932969">
        <ele>726.0</ele>
        <time>2011-07-03T12:29:04Z</time>
      </trkpt>
      <trkpt lat="46.2836378" lon="15.5931579">
        <ele>726.0</ele>
        <time>2011-07-03T12:29:10Z</time>
      </trkpt>
      <trkpt lat="46.2836526" lon="15.5930721">
        <ele>725.0</ele>
        <time>2011-07-03T12:29:14Z</time>
      </trkpt>
      <trkpt lat="46.2836583" lon="15.5930303">
        <ele>724.5</ele>
        <time>2011-07-03T12:29:18Z</time>
      </trkpt>
      <trkpt lat="46.2836662" lon="15.5928797">
        <ele>724.0</ele>
        <time>2011-07-03T12:29:30Z</time>
      </trkpt>
      <trkpt lat="46.2836817" lon="15.5926565">
        <ele>720.5</ele>
        <time>2011-07-03T12:29:44Z</time>
      </trkpt>
      <trkpt lat="46.283691" lon="15.5925525">
        <ele>719.0</ele>
        <time>2011-07-03T12:29:50Z</time>
      </trkpt>
      <trkpt lat="46.2837406" lon="15.5925255">
        <ele>717.5</ele>
        <time>2011-07-03T12:29:58Z</time>
      </trkpt>
      <trkpt lat="46.2837839" lon="15.5924436">
        <ele>716.0</ele>
        <time>2011-07-03T12:30:04Z</time>
      </trkpt>
      <trkpt lat="46.2838088" lon="15.5923522">
        <ele>716.5</ele>
        <time>2011-07-03T12:30:08Z</time>
      </trkpt>
      <trkpt lat="46.2838316" lon="15.5922902">
        <ele>716.5</ele>
        <time>2011-07-03T12:30:12Z</time>
      </trkpt>
      <trkpt lat="46.2838823" lon="15.5921843">
        <ele>715.0</ele>
        <time>2011-07-03T12:30:20Z</time>
      </trkpt>
      <trkpt lat="46.2839042" lon="15.5921188">
        <ele>714.0</ele>
        <time>2011-07-03T12:30:26Z</time>
      </trkpt>
      <trkpt lat="46.2839128" lon="15.5919613">
        <ele>712.5</ele>
        <time>2011-07-03T12:30:30Z</time>
      </trkpt>
      <trkpt lat="46.2839333" lon="15.5918799">
        <ele>711.0</ele>
        <time>2011-07-03T12:30:36Z</time>
      </trkpt>
      <trkpt lat="46.283943" lon="15.5918474">
        <ele>710.0</ele>
        <time>2011-07-03T12:30:38Z</time>
      </trkpt>
      <trkpt lat="46.2839808" lon="15.5917405">
        <ele>708.0</ele>
        <time>2011-07-03T12:30:46Z</time>
      </trkpt>
      <trkpt lat="46.283981" lon="15.5916037">
        <ele>708.5</ele>
        <time>2011-07-03T12:30:54Z</time>
      </trkpt>
      <trkpt lat="46.2839708" lon="15.5915313">
        <ele>709.0</ele>
        <time>2011-07-03T12:30:58Z</time>
      </trkpt>
      <trkpt lat="46.2839819" lon="15.5913155">
        <ele>709.0</ele>
        <time>2011-07-03T12:31:08Z</time>
      </trkpt>
      <trkpt lat="46.284022" lon="15.5911975">
        <ele>712.5</ele>
        <time>2011-07-03T12:31:20Z</time>
      </trkpt>
      <trkpt lat="46.2840723" lon="15.5910812">
        <ele>713.0</ele>
        <time>2011-07-03T12:31:26Z</time>
      </trkpt>
      <trkpt lat="46.2840942" lon="15.5910328">
        <ele>712.5</ele>
        <time>2011-07-03T12:31:30Z</time>
      </trkpt>
      <trkpt lat="46.2841051" lon="15.5909524">
        <ele>711.5</ele>
        <time>2011-07-03T12:31:34Z</time>
      </trkpt>
      <trkpt lat="46.2841552" lon="15.5908619">
        <ele>711.5</ele>
        <time>2011-07-03T12:31:42Z</time>
      </trkpt>
      <trkpt lat="46.2842099" lon="15.5908219">
        <ele>708.5</ele>
        <time>2011-07-03T12:31:46Z</time>
      </trkpt>
      <trkpt lat="46.2843332" lon="15.5907809">
        <ele>709.5</ele>
        <time>2011-07-03T12:31:56Z</time>
      </trkpt>
      <trkpt lat="46.2844135" lon="15.5906747">
        <ele>710.5</ele>
        <time>2011-07-03T12:32:06Z</time>
      </trkpt>
      <trkpt lat="46.2844592" lon="15.5906461">
        <ele>711.0</ele>
        <time>2011-07-03T12:32:10Z</time>
      </trkpt>
      <trkpt lat="46.28452" lon="15.5905805">
        <ele>710.5</ele>
        <time>2011-07-03T12:32:16Z</time>
      </trkpt>
      <trkpt lat="46.2845279" lon="15.5904855">
        <ele>713.0</ele>
        <time>2011-07-03T12:32:22Z</time>
      </trkpt>
      <trkpt lat="46.2845149" lon="15.5904215">
        <ele>715.5</ele>
        <time>2011-07-03T12:32:24Z</time>
      </trkpt>
      <trkpt lat="46.2845546" lon="15.5903061">
        <ele>716.5</ele>
        <time>2011-07-03T12:32:32Z</time>
      </trkpt>
      <trkpt lat="46.2845719" lon="15.5902202">
        <ele>718.0</ele>
        <time>2011-07-03T12:32:36Z</time>
      </trkpt>
      <trkpt lat="46.2845798" lon="15.5901821">
        <ele>715.5</ele>
        <time>2011-07-03T12:32:38Z</time>
      </trkpt>
      <trkpt lat="46.2846108" lon="15.5900337">
        <ele>718.5</ele>
        <time>2011-07-03T12:32:48Z</time>
      </trkpt>
      <trkpt lat="46.2846206" lon="15.5899606">
        <ele>718.0</ele>
        <time>2011-07-03T12:32:52Z</time>
      </trkpt>
      <trkpt lat="46.2846126" lon="15.5898736">
        <ele>719.5</ele>
        <time>2011-07-03T12:32:58Z</time>
      </trkpt>
      <trkpt lat="46.284625" lon="15.5898084">
        <ele>720.5</ele>
        <time>2011-07-03T12:33:08Z</time>
      </trkpt>
      <trkpt lat="46.284679" lon="15.5897283">
        <ele>721.5</ele>
        <time>2011-07-03T12:33:14Z</time>
      </trkpt>
      <trkpt lat="46.2847343" lon="15.5896427">
        <ele>719.0</ele>
        <time>2011-07-03T12:33:18Z</time>
      </trkpt>
      <trkpt lat="46.2847609" lon="15.5895979">
        <ele>717.0</ele>
        <time>2011-07-03T12:33:20Z</time>
      </trkpt>
      <trkpt lat="46.2847904" lon="15.5895234">
        <ele>717.5</ele>
        <time>2011-07-03T12:33:24Z</time>
      </trkpt>
      <trkpt lat="46.2847572" lon="15.5894658">
        <ele>717.0</ele>
        <time>2011-07-03T12:33:30Z</time>
      </trkpt>
      <trkpt lat="46.2847556" lon="15.5893564">
        <ele>718.5</ele>
        <time>2011-07-03T12:33:38Z</time>
      </trkpt>
      <trkpt lat="46.2847736" lon="15.5892905">
        <ele>717.0</ele>
        <time>2011-07-03T12:33:42Z</time>
      </trkpt>
      <trkpt lat="46.2848288" lon="15.5892439">
        <ele>714.5</ele>
        <time>2011-07-03T12:33:48Z</time>
      </trkpt>
      <trkpt lat="46.2848781" lon="15.5892138">
        <ele>717.0</ele>
        <time>2011-07-03T12:33:54Z</time>
      </trkpt>
      <trkpt lat="46.2849771" lon="15.5891107">
        <ele>720.5</ele>
        <time>2011-07-03T12:34:02Z</time>
      </trkpt>
      <trkpt lat="46.2850399" lon="15.589054">
        <ele>721.0</ele>
        <time>2011-07-03T12:34:06Z</time>
      </trkpt>
      <trkpt lat="46.2850621" lon="15.5890299">
        <ele>721.0</ele>
        <time>2011-07-03T12:34:08Z</time>
      </trkpt>
      <trkpt lat="46.2851834" lon="15.5889257">
        <ele>725.0</ele>
        <time>2011-07-03T12:34:22Z</time>
      </trkpt>
      <trkpt lat="46.2853012" lon="15.5888435">
        <ele>725.0</ele>
        <time>2011-07-03T12:34:34Z</time>
      </trkpt>
      <trkpt lat="46.2854073" lon="15.5887746">
        <ele>726.0</ele>
        <time>2011-07-03T12:34:40Z</time>
      </trkpt>
      <trkpt lat="46.2855197" lon="15.5886771">
        <ele>728.5</ele>
        <time>2011-07-03T12:34:48Z</time>
      </trkpt>
      <trkpt lat="46.2856264" lon="15.5886598">
        <ele>728.5</ele>
        <time>2011-07-03T12:34:58Z</time>
      </trkpt>
      <trkpt lat="46.2857993" lon="15.588621">
        <ele>724.5</ele>
        <time>2011-07-03T12:35:12Z</time>
      </trkpt>
      <trkpt lat="46.2858824" lon="15.5885983">
        <ele>727.0</ele>
        <time>2011-07-03T12:35:24Z</time>
      </trkpt>
      <trkpt lat="46.285955" lon="15.5885708">
        <ele>724.0</ele>
        <time>2011-07-03T12:35:32Z</time>
      </trkpt>
      <trkpt lat="46.2859904" lon="15.5885538">
        <ele>724.0</ele>
        <time>2011-07-03T12:35:36Z</time>
      </trkpt>
      <trkpt lat="46.2860481" lon="15.5885441">
        <ele>724.0</ele>
        <time>2011-07-03T12:35:42Z</time>
      </trkpt>
      <trkpt lat="46.2861156" lon="15.5885027">
        <ele>722.5</ele>
        <time>2011-07-03T12:35:48Z</time>
      </trkpt>
      <trkpt lat="46.2861672" lon="15.5884972">
        <ele>721.5</ele>
        <time>2011-07-03T12:35:58Z</time>
      </trkpt>
      <trkpt lat="46.28623" lon="15.588456">
        <ele>721.5</ele>
        <time>2011-07-03T12:36:02Z</time>
      </trkpt>
      <trkpt lat="46.286288" lon="15.588464">
        <ele>722.5</ele>
        <time>2011-07-03T12:36:08Z</time>
      </trkpt>
      <trkpt lat="46.2863242" lon="15.5884221">
        <ele>722.0</ele>
        <time>2011-07-03T12:36:12Z</time>
      </trkpt>
      <trkpt lat="46.2863815" lon="15.5883881">
        <ele>723.0</ele>
        <time>2011-07-03T12:36:18Z</time>
      </trkpt>
      <trkpt lat="46.2864264" lon="15.5883287">
        <ele>725.0</ele>
        <time>2011-07-03T12:36:26Z</time>
      </trkpt>
      <trkpt lat="46.2864922" lon="15.5882303">
        <ele>725.5</ele>
        <time>2011-07-03T12:36:32Z</time>
      </trkpt>
      <trkpt lat="46.2865821" lon="15.5880863">
        <ele>727.5</ele>
        <time>2011-07-03T12:36:42Z</time>
      </trkpt>
      <trkpt lat="46.2866401" lon="15.5880171">
        <ele>727.5</ele>
        <time>2011-07-03T12:36:48Z</time>
      </trkpt>
      <trkpt lat="46.2867146" lon="15.587808">
        <ele>728.5</ele>
        <time>2011-07-03T12:37:02Z</time>
      </trkpt>
      <trkpt lat="46.2867702" lon="15.5877266">
        <ele>729.5</ele>
        <time>2011-07-03T12:37:10Z</time>
      </trkpt>
      <trkpt lat="46.2867997" lon="15.5876673">
        <ele>729.5</ele>
        <time>2011-07-03T12:37:14Z</time>
      </trkpt>
      <trkpt lat="46.2868381" lon="15.5875881">
        <ele>729.5</ele>
        <time>2011-07-03T12:37:18Z</time>
      </trkpt>
      <trkpt lat="46.2868898" lon="15.5875418">
        <ele>729.5</ele>
        <time>2011-07-03T12:37:24Z</time>
      </trkpt>
      <trkpt lat="46.2869577" lon="15.5874857">
        <ele>728.0</ele>
        <time>2011-07-03T12:37:28Z</time>
      </trkpt>
      <trkpt lat="46.2869851" lon="15.5874668">
        <ele>728.0</ele>
        <time>2011-07-03T12:37:30Z</time>
      </trkpt>
      <trkpt lat="46.2870779" lon="15.5872745">
        <ele>729.5</ele>
        <time>2011-07-03T12:37:46Z</time>
      </trkpt>
      <trkpt lat="46.2871183" lon="15.5871921">
        <ele>730.0</ele>
        <time>2011-07-03T12:37:52Z</time>
      </trkpt>
      <trkpt lat="46.2871838" lon="15.587189">
        <ele>728.5</ele>
        <time>2011-07-03T12:37:56Z</time>
      </trkpt>
      <trkpt lat="46.2872272" lon="15.5871236">
        <ele>727.5</ele>
        <time>2011-07-03T12:38:00Z</time>
      </trkpt>
      <trkpt lat="46.2872321" lon="15.5870172">
        <ele>725.0</ele>
        <time>2011-07-03T12:38:08Z</time>
      </trkpt>
      <trkpt lat="46.2872591" lon="15.5869019">
        <ele>727.5</ele>
        <time>2011-07-03T12:38:18Z</time>
      </trkpt>
      <trkpt lat="46.287381" lon="15.5868689">
        <ele>721.0</ele>
        <time>2011-07-03T12:38:32Z</time>
      </trkpt>
      <trkpt lat="46.2874715" lon="15.5869193">
        <ele>721.5</ele>
        <time>2011-07-03T12:38:40Z</time>
      </trkpt>
      <trkpt lat="46.287645" lon="15.5867291">
        <ele>718.0</ele>
        <time>2011-07-03T12:38:56Z</time>
      </trkpt>
      <trkpt lat="46.2877385" lon="15.5866554">
        <ele>712.5</ele>
        <time>2011-07-03T12:39:00Z</time>
      </trkpt>
      <trkpt lat="46.2878072" lon="15.5867912">
        <ele>709.0</ele>
        <time>2011-07-03T12:39:12Z</time>
      </trkpt>
      <trkpt lat="46.2878846" lon="15.5866139">
        <ele>705.0</ele>
        <time>2011-07-03T12:39:26Z</time>
      </trkpt>
      <trkpt lat="46.2879413" lon="15.5865588">
        <ele>705.0</ele>
        <time>2011-07-03T12:39:32Z</time>
      </trkpt>
      <trkpt lat="46.2879887" lon="15.5865067">
        <ele>702.0</ele>
        <time>2011-07-03T12:39:38Z</time>
      </trkpt>
      <trkpt lat="46.2880694" lon="15.5862595">
        <ele>700.5</ele>
        <time>2011-07-03T12:39:52Z</time>
      </trkpt>
      <trkpt lat="46.2881083" lon="15.5861271">
        <ele>699.5</ele>
        <time>2011-07-03T12:40:00Z</time>
      </trkpt>
      <trkpt lat="46.2880671" lon="15.5860339">
        <ele>697.0</ele>
        <time>2011-07-03T12:40:02Z</time>
      </trkpt>
      <trkpt lat="46.2880805" lon="15.585954">
        <ele>696.5</ele>
        <time>2011-07-03T12:40:10Z</time>
      </trkpt>
      <trkpt lat="46.2880805" lon="15.585954">
        <ele>696.5</ele>
        <time>2011-07-03T12:40:26Z</time>
      </trkpt>
      <trkpt lat="46.2881487" lon="15.585968">
        <ele>692.5</ele>
        <time>2011-07-03T12:40:34Z</time>
      </trkpt>
      <trkpt lat="46.2882015" lon="15.5860071">
        <ele>692.0</ele>
        <time>2011-07-03T12:40:38Z</time>
      </trkpt>
      <trkpt lat="46.2882609" lon="15.5859955">
        <ele>694.5</ele>
        <time>2011-07-03T12:40:44Z</time>
      </trkpt>
      <trkpt lat="46.2883962" lon="15.5859708">
        <ele>702.0</ele>
        <time>2011-07-03T12:40:56Z</time>
      </trkpt>
      <trkpt lat="46.2884846" lon="15.586041">
        <ele>701.0</ele>
        <time>2011-07-03T12:41:04Z</time>
      </trkpt>
      <trkpt lat="46.288531" lon="15.5860753">
        <ele>700.5</ele>
        <time>2011-07-03T12:41:10Z</time>
      </trkpt>
      <trkpt lat="46.2886468" lon="15.5860507">
        <ele>696.0</ele>
        <time>2011-07-03T12:41:16Z</time>
      </trkpt>
      <trkpt lat="46.2886789" lon="15.5860409">
        <ele>696.0</ele>
        <time>2011-07-03T12:41:18Z</time>
      </trkpt>
      <trkpt lat="46.2887195" lon="15.5860708">
        <ele>695.0</ele>
        <time>2011-07-03T12:41:20Z</time>
      </trkpt>
      <trkpt lat="46.2887505" lon="15.5860921">
        <ele>696.0</ele>
        <time>2011-07-03T12:41:24Z</time>
      </trkpt>
      <trkpt lat="46.2888806" lon="15.5860746">
        <ele>690.0</ele>
        <time>2011-07-03T12:41:32Z</time>
      </trkpt>
      <trkpt lat="46.2889851" lon="15.5860353">
        <ele>690.0</ele>
        <time>2011-07-03T12:41:40Z</time>
      </trkpt>
      <trkpt lat="46.2890054" lon="15.5859585">
        <ele>688.0</ele>
        <time>2011-07-03T12:41:42Z</time>
      </trkpt>
      <trkpt lat="46.2891058" lon="15.5860113">
        <ele>686.0</ele>
        <time>2011-07-03T12:41:52Z</time>
      </trkpt>
      <trkpt lat="46.2891593" lon="15.5860208">
        <ele>687.0</ele>
        <time>2011-07-03T12:41:56Z</time>
      </trkpt>
      <trkpt lat="46.2892411" lon="15.5861375">
        <ele>686.0</ele>
        <time>2011-07-03T12:42:10Z</time>
      </trkpt>
      <trkpt lat="46.2892898" lon="15.5862361">
        <ele>686.5</ele>
        <time>2011-07-03T12:42:16Z</time>
      </trkpt>
      <trkpt lat="46.2893536" lon="15.5863673">
        <ele>685.0</ele>
        <time>2011-07-03T12:42:22Z</time>
      </trkpt>
      <trkpt lat="46.2894326" lon="15.5865943">
        <ele>681.0</ele>
        <time>2011-07-03T12:42:30Z</time>
      </trkpt>
      <trkpt lat="46.2894485" lon="15.5867292">
        <ele>677.5</ele>
        <time>2011-07-03T12:42:32Z</time>
      </trkpt>
      <trkpt lat="46.2894349" lon="15.5868743">
        <ele>671.5</ele>
        <time>2011-07-03T12:42:40Z</time>
      </trkpt>
      <trkpt lat="46.2894863" lon="15.587031">
        <ele>669.0</ele>
        <time>2011-07-03T12:42:50Z</time>
      </trkpt>
      <trkpt lat="46.2895923" lon="15.587211">
        <ele>667.0</ele>
        <time>2011-07-03T12:43:04Z</time>
      </trkpt>
      <trkpt lat="46.2895793" lon="15.5873733">
        <ele>665.0</ele>
        <time>2011-07-03T12:43:10Z</time>
      </trkpt>
      <trkpt lat="46.2895784" lon="15.5874199">
        <ele>664.0</ele>
        <time>2011-07-03T12:43:12Z</time>
      </trkpt>
      <trkpt lat="46.2895904" lon="15.5874869">
        <ele>664.0</ele>
        <time>2011-07-03T12:43:16Z</time>
      </trkpt>
      <trkpt lat="46.289581" lon="15.5875671">
        <ele>663.0</ele>
        <time>2011-07-03T12:43:22Z</time>
      </trkpt>
      <trkpt lat="46.2897193" lon="15.5875822">
        <ele>663.0</ele>
        <time>2011-07-03T12:43:26Z</time>
      </trkpt>
      <trkpt lat="46.2897482" lon="15.5875838">
        <ele>663.0</ele>
        <time>2011-07-03T12:43:28Z</time>
      </trkpt>
      <trkpt lat="46.2898037" lon="15.5875679">
        <ele>663.0</ele>
        <time>2011-07-03T12:43:34Z</time>
      </trkpt>
      <trkpt lat="46.2898353" lon="15.5875615">
        <ele>665.0</ele>
        <time>2011-07-03T12:43:38Z</time>
      </trkpt>
      <trkpt lat="46.2898993" lon="15.5876122">
        <ele>666.5</ele>
        <time>2011-07-03T12:43:52Z</time>
      </trkpt>
      <trkpt lat="46.2899303" lon="15.5876408">
        <ele>668.0</ele>
        <time>2011-07-03T12:43:56Z</time>
      </trkpt>
      <trkpt lat="46.2899897" lon="15.5876347">
        <ele>666.0</ele>
        <time>2011-07-03T12:44:08Z</time>
      </trkpt>
      <trkpt lat="46.2900273" lon="15.5876334">
        <ele>665.0</ele>
        <time>2011-07-03T12:44:14Z</time>
      </trkpt>
      <trkpt lat="46.2900721" lon="15.5876038">
        <ele>663.5</ele>
        <time>2011-07-03T12:44:20Z</time>
      </trkpt>
      <trkpt lat="46.2900721" lon="15.5876038">
        <ele>663.5</ele>
        <time>2011-07-03T12:45:00Z</time>
      </trkpt>
      <trkpt lat="46.2900721" lon="15.5876038">
        <ele>663.5</ele>
        <time>2011-07-03T12:46:06Z</time>
      </trkpt>
      <trkpt lat="46.2900721" lon="15.5876038">
        <ele>663.5</ele>
        <time>2011-07-03T12:46:26Z</time>
      </trkpt>
      <trkpt lat="46.2900721" lon="15.5876038">
        <ele>663.5</ele>
        <time>2011-07-03T12:46:48Z</time>
      </trkpt>
      <trkpt lat="46.290342" lon="15.5879362">
        <ele>647.0</ele>
        <time>2011-07-03T12:46:54Z</time>
      </trkpt>
      <trkpt lat="46.2903587" lon="15.5880022">
        <ele>646.5</ele>
        <time>2011-07-03T12:47:00Z</time>
      </trkpt>
      <trkpt lat="46.2903542" lon="15.5880878">
        <ele>640.5</ele>
        <time>2011-07-03T12:47:24Z</time>
      </trkpt>
      <trkpt lat="46.2903231" lon="15.5881993">
        <ele>638.5</ele>
        <time>2011-07-03T12:47:34Z</time>
      </trkpt>
      <trkpt lat="46.2902893" lon="15.5882803">
        <ele>637.5</ele>
        <time>2011-07-03T12:47:42Z</time>
      </trkpt>
      <trkpt lat="46.2902684" lon="15.5884295">
        <ele>637.0</ele>
        <time>2011-07-03T12:47:52Z</time>
      </trkpt>
      <trkpt lat="46.2902766" lon="15.5885059">
        <ele>636.5</ele>
        <time>2011-07-03T12:47:56Z</time>
      </trkpt>
      <trkpt lat="46.2902389" lon="15.5886459">
        <ele>636.0</ele>
        <time>2011-07-03T12:48:16Z</time>
      </trkpt>
      <trkpt lat="46.2902262" lon="15.5886841">
        <ele>635.5</ele>
        <time>2011-07-03T12:48:20Z</time>
      </trkpt>
      <trkpt lat="46.2901763" lon="15.5887256">
        <ele>634.5</ele>
        <time>2011-07-03T12:48:32Z</time>
      </trkpt>
      <trkpt lat="46.2901192" lon="15.5887737">
        <ele>633.5</ele>
        <time>2011-07-03T12:48:40Z</time>
      </trkpt>
      <trkpt lat="46.2901077" lon="15.5889237">
        <ele>632.0</ele>
        <time>2011-07-03T12:48:48Z</time>
      </trkpt>
      <trkpt lat="46.2901063" lon="15.5889973">
        <ele>630.5</ele>
        <time>2011-07-03T12:48:52Z</time>
      </trkpt>
      <trkpt lat="46.2901254" lon="15.5890996">
        <ele>628.5</ele>
        <time>2011-07-03T12:49:02Z</time>
      </trkpt>
      <trkpt lat="46.2901209" lon="15.5892148">
        <ele>627.5</ele>
        <time>2011-07-03T12:49:14Z</time>
      </trkpt>
      <trkpt lat="46.2900472" lon="15.5892932">
        <ele>627.0</ele>
        <time>2011-07-03T12:49:18Z</time>
      </trkpt>
      <trkpt lat="46.2899615" lon="15.5893302">
        <ele>626.5</ele>
        <time>2011-07-03T12:49:24Z</time>
      </trkpt>
      <trkpt lat="46.2899353" lon="15.5893434">
        <ele>626.0</ele>
        <time>2011-07-03T12:49:26Z</time>
      </trkpt>
      <trkpt lat="46.2898643" lon="15.5894448">
        <ele>625.5</ele>
        <time>2011-07-03T12:49:30Z</time>
      </trkpt>
      <trkpt lat="46.2898643" lon="15.5894448">
        <ele>625.5</ele>
        <time>2011-07-03T12:50:12Z</time>
      </trkpt>
      <trkpt lat="46.2898643" lon="15.5894448">
        <ele>625.5</ele>
        <time>2011-07-03T12:50:30Z</time>
      </trkpt>
      <trkpt lat="46.2898643" lon="15.5894448">
        <ele>625.5</ele>
        <time>2011-07-03T12:50:49Z</time>
      </trkpt>
      <trkpt lat="46.2899386" lon="15.5895127">
        <ele>627.0</ele>
        <time>2011-07-03T12:50:53Z</time>
      </trkpt>
      <trkpt lat="46.2900005" lon="15.5894856">
        <ele>626.5</ele>
        <time>2011-07-03T12:50:59Z</time>
      </trkpt>
      <trkpt lat="46.290058" lon="15.5894216">
        <ele>626.0</ele>
        <time>2011-07-03T12:51:07Z</time>
      </trkpt>
      <trkpt lat="46.2902385" lon="15.5894024">
        <ele>625.5</ele>
        <time>2011-07-03T12:51:13Z</time>
      </trkpt>
      <trkpt lat="46.2903128" lon="15.5894495">
        <ele>624.0</ele>
        <time>2011-07-03T12:51:25Z</time>
      </trkpt>
      <trkpt lat="46.2903398" lon="15.5893806">
        <ele>623.0</ele>
        <time>2011-07-03T12:51:37Z</time>
      </trkpt>
      <trkpt lat="46.290404" lon="15.5892974">
        <ele>620.5</ele>
        <time>2011-07-03T12:51:59Z</time>
      </trkpt>
      <trkpt lat="46.2904494" lon="15.5892694">
        <ele>619.0</ele>
        <time>2011-07-03T12:52:03Z</time>
      </trkpt>
      <trkpt lat="46.2905512" lon="15.5894269">
        <ele>615.5</ele>
        <time>2011-07-03T12:52:17Z</time>
      </trkpt>
      <trkpt lat="46.290602" lon="15.5894273">
        <ele>612.5</ele>
        <time>2011-07-03T12:52:29Z</time>
      </trkpt>
      <trkpt lat="46.2906529" lon="15.589378">
        <ele>611.0</ele>
        <time>2011-07-03T12:52:35Z</time>
      </trkpt>
      <trkpt lat="46.2907088" lon="15.5893745">
        <ele>610.0</ele>
        <time>2011-07-03T12:52:43Z</time>
      </trkpt>
      <trkpt lat="46.2907088" lon="15.5893745">
        <ele>610.0</ele>
        <time>2011-07-03T12:53:11Z</time>
      </trkpt>
      <trkpt lat="46.2907864" lon="15.5892951">
        <ele>606.0</ele>
        <time>2011-07-03T12:53:13Z</time>
      </trkpt>
      <trkpt lat="46.2908135" lon="15.5892432">
        <ele>605.5</ele>
        <time>2011-07-03T12:53:19Z</time>
      </trkpt>
      <trkpt lat="46.2908461" lon="15.5891414">
        <ele>605.5</ele>
        <time>2011-07-03T12:53:31Z</time>
      </trkpt>
      <trkpt lat="46.2908534" lon="15.5890396">
        <ele>604.5</ele>
        <time>2011-07-03T12:53:37Z</time>
      </trkpt>
      <trkpt lat="46.2908798" lon="15.5889755">
        <ele>603.0</ele>
        <time>2011-07-03T12:53:45Z</time>
      </trkpt>
      <trkpt lat="46.2909245" lon="15.5889664">
        <ele>602.0</ele>
        <time>2011-07-03T12:53:51Z</time>
      </trkpt>
      <trkpt lat="46.2909862" lon="15.589021">
        <ele>600.5</ele>
        <time>2011-07-03T12:53:59Z</time>
      </trkpt>
      <trkpt lat="46.2910542" lon="15.5890503">
        <ele>598.5</ele>
        <time>2011-07-03T12:54:09Z</time>
      </trkpt>
      <trkpt lat="46.2911328" lon="15.5889418">
        <ele>597.0</ele>
        <time>2011-07-03T12:54:17Z</time>
      </trkpt>
      <trkpt lat="46.2911328" lon="15.5889418">
        <ele>597.0</ele>
        <time>2011-07-03T12:54:45Z</time>
      </trkpt>
      <trkpt lat="46.2912426" lon="15.5889297">
        <ele>593.0</ele>
        <time>2011-07-03T12:54:47Z</time>
      </trkpt>
      <trkpt lat="46.2912732" lon="15.5888781">
        <ele>590.5</ele>
        <time>2011-07-03T12:54:59Z</time>
      </trkpt>
      <trkpt lat="46.291328" lon="15.5888477">
        <ele>590.0</ele>
        <time>2011-07-03T12:55:07Z</time>
      </trkpt>
      <trkpt lat="46.2913634" lon="15.5888004">
        <ele>590.0</ele>
        <time>2011-07-03T12:55:13Z</time>
      </trkpt>
      <trkpt lat="46.2914176" lon="15.5888188">
        <ele>588.0</ele>
        <time>2011-07-03T12:55:25Z</time>
      </trkpt>
      <trkpt lat="46.2914318" lon="15.5886926">
        <ele>586.5</ele>
        <time>2011-07-03T12:55:31Z</time>
      </trkpt>
      <trkpt lat="46.2916245" lon="15.5886731">
        <ele>584.5</ele>
        <time>2011-07-03T12:55:49Z</time>
      </trkpt>
      <trkpt lat="46.291639" lon="15.5885946">
        <ele>583.0</ele>
        <time>2011-07-03T12:56:01Z</time>
      </trkpt>
      <trkpt lat="46.2916901" lon="15.5884845">
        <ele>580.0</ele>
        <time>2011-07-03T12:56:11Z</time>
      </trkpt>
      <trkpt lat="46.2918138" lon="15.5884156">
        <ele>577.5</ele>
        <time>2011-07-03T12:56:25Z</time>
      </trkpt>
      <trkpt lat="46.2920152" lon="15.58845">
        <ele>575.5</ele>
        <time>2011-07-03T12:56:37Z</time>
      </trkpt>
      <trkpt lat="46.292076" lon="15.5883879">
        <ele>574.5</ele>
        <time>2011-07-03T12:56:41Z</time>
      </trkpt>
      <trkpt lat="46.2921537" lon="15.588346">
        <ele>571.5</ele>
        <time>2011-07-03T12:56:49Z</time>
      </trkpt>
      <trkpt lat="46.2921954" lon="15.5881341">
        <ele>569.0</ele>
        <time>2011-07-03T12:57:01Z</time>
      </trkpt>
      <trkpt lat="46.2920675" lon="15.5880817">
        <ele>567.5</ele>
        <time>2011-07-03T12:57:11Z</time>
      </trkpt>
      <trkpt lat="46.2922073" lon="15.587913">
        <ele>565.5</ele>
        <time>2011-07-03T12:57:27Z</time>
      </trkpt>
      <trkpt lat="46.2922438" lon="15.5878212">
        <ele>564.0</ele>
        <time>2011-07-03T12:57:35Z</time>
      </trkpt>
      <trkpt lat="46.2923286" lon="15.5878613">
        <ele>561.0</ele>
        <time>2011-07-03T12:57:43Z</time>
      </trkpt>
      <trkpt lat="46.2924468" lon="15.5879206">
        <ele>558.5</ele>
        <time>2011-07-03T12:57:53Z</time>
      </trkpt>
      <trkpt lat="46.2925572" lon="15.5878918">
        <ele>555.0</ele>
        <time>2011-07-03T12:58:05Z</time>
      </trkpt>
      <trkpt lat="46.292575" lon="15.5878049">
        <ele>554.5</ele>
        <time>2011-07-03T12:58:09Z</time>
      </trkpt>
      <trkpt lat="46.2926797" lon="15.5878373">
        <ele>552.5</ele>
        <time>2011-07-03T12:58:19Z</time>
      </trkpt>
      <trkpt lat="46.2927211" lon="15.587854">
        <ele>551.0</ele>
        <time>2011-07-03T12:58:21Z</time>
      </trkpt>
      <trkpt lat="46.2928431" lon="15.5878105">
        <ele>548.5</ele>
        <time>2011-07-03T12:58:37Z</time>
      </trkpt>
      <trkpt lat="46.292931" lon="15.5876987">
        <ele>546.5</ele>
        <time>2011-07-03T12:58:47Z</time>
      </trkpt>
      <trkpt lat="46.2929452" lon="15.5876282">
        <ele>546.0</ele>
        <time>2011-07-03T12:58:49Z</time>
      </trkpt>
      <trkpt lat="46.2931085" lon="15.5876152">
        <ele>544.0</ele>
        <time>2011-07-03T12:59:01Z</time>
      </trkpt>
      <trkpt lat="46.2931203" lon="15.5873433">
        <ele>541.5</ele>
        <time>2011-07-03T12:59:11Z</time>
      </trkpt>
      <trkpt lat="46.2931367" lon="15.5872692">
        <ele>540.5</ele>
        <time>2011-07-03T12:59:17Z</time>
      </trkpt>
      <trkpt lat="46.2931835" lon="15.5872356">
        <ele>539.5</ele>
        <time>2011-07-03T12:59:25Z</time>
      </trkpt>
      <trkpt lat="46.2932656" lon="15.5871536">
        <ele>540.5</ele>
        <time>2011-07-03T12:59:35Z</time>
      </trkpt>
      <trkpt lat="46.2933143" lon="15.5870265">
        <ele>540.0</ele>
        <time>2011-07-03T12:59:43Z</time>
      </trkpt>
      <trkpt lat="46.2934177" lon="15.5869926">
        <ele>537.5</ele>
        <time>2011-07-03T12:59:59Z</time>
      </trkpt>
      <trkpt lat="46.2934296" lon="15.586815">
        <ele>537.0</ele>
        <time>2011-07-03T13:00:11Z</time>
      </trkpt>
      <trkpt lat="46.2934092" lon="15.5867568">
        <ele>536.5</ele>
        <time>2011-07-03T13:00:13Z</time>
      </trkpt>
      <trkpt lat="46.2934344" lon="15.5866346">
        <ele>536.5</ele>
        <time>2011-07-03T13:00:23Z</time>
      </trkpt>
      <trkpt lat="46.2934856" lon="15.5865746">
        <ele>537.0</ele>
        <time>2011-07-03T13:00:27Z</time>
      </trkpt>
      <trkpt lat="46.2935158" lon="15.5864944">
        <ele>536.5</ele>
        <time>2011-07-03T13:00:33Z</time>
      </trkpt>
      <trkpt lat="46.2935334" lon="15.5864547">
        <ele>536.5</ele>
        <time>2011-07-03T13:00:35Z</time>
      </trkpt>
      <trkpt lat="46.2935334" lon="15.5864547">
        <ele>536.5</ele>
        <time>2011-07-03T13:01:47Z</time>
      </trkpt>
      <trkpt lat="46.2937227" lon="15.5861546">
        <ele>533.5</ele>
        <time>2011-07-03T13:01:53Z</time>
      </trkpt>
      <trkpt lat="46.2938128" lon="15.5862495">
        <ele>533.5</ele>
        <time>2011-07-03T13:02:03Z</time>
      </trkpt>
      <trkpt lat="46.2938632" lon="15.586264">
        <ele>533.0</ele>
        <time>2011-07-03T13:02:07Z</time>
      </trkpt>
      <trkpt lat="46.2938632" lon="15.586264">
        <ele>533.0</ele>
        <time>2011-07-03T13:02:23Z</time>
      </trkpt>
      <trkpt lat="46.2939505" lon="15.5862083">
        <ele>531.0</ele>
        <time>2011-07-03T13:02:31Z</time>
      </trkpt>
      <trkpt lat="46.2939912" lon="15.5860678">
        <ele>530.0</ele>
        <time>2011-07-03T13:02:39Z</time>
      </trkpt>
      <trkpt lat="46.2940454" lon="15.5860652">
        <ele>526.0</ele>
        <time>2011-07-03T13:02:49Z</time>
      </trkpt>
      <trkpt lat="46.2941565" lon="15.5860125">
        <ele>522.0</ele>
        <time>2011-07-03T13:03:03Z</time>
      </trkpt>
      <trkpt lat="46.2942296" lon="15.5860146">
        <ele>520.5</ele>
        <time>2011-07-03T13:03:07Z</time>
      </trkpt>
      <trkpt lat="46.2943244" lon="15.5858426">
        <ele>514.0</ele>
        <time>2011-07-03T13:03:25Z</time>
      </trkpt>
      <trkpt lat="46.294352" lon="15.5857879">
        <ele>513.0</ele>
        <time>2011-07-03T13:03:33Z</time>
      </trkpt>
      <trkpt lat="46.294335" lon="15.5857235">
        <ele>513.5</ele>
        <time>2011-07-03T13:03:39Z</time>
      </trkpt>
      <trkpt lat="46.2943721" lon="15.5856623">
        <ele>513.0</ele>
        <time>2011-07-03T13:03:49Z</time>
      </trkpt>
      <trkpt lat="46.2944575" lon="15.5855922">
        <ele>512.0</ele>
        <time>2011-07-03T13:03:57Z</time>
      </trkpt>
      <trkpt lat="46.2944971" lon="15.5855537">
        <ele>511.5</ele>
        <time>2011-07-03T13:04:01Z</time>
      </trkpt>
      <trkpt lat="46.2945876" lon="15.5854005">
        <ele>510.0</ele>
        <time>2011-07-03T13:04:19Z</time>
      </trkpt>
      <trkpt lat="46.2946295" lon="15.5853734">
        <ele>509.5</ele>
        <time>2011-07-03T13:04:23Z</time>
      </trkpt>
      <trkpt lat="46.2946363" lon="15.5852896">
        <ele>508.0</ele>
        <time>2011-07-03T13:04:31Z</time>
      </trkpt>
      <trkpt lat="46.2948438" lon="15.5852226">
        <ele>507.5</ele>
        <time>2011-07-03T13:04:41Z</time>
      </trkpt>
      <trkpt lat="46.2948939" lon="15.5852283">
        <ele>507.0</ele>
        <time>2011-07-03T13:04:45Z</time>
      </trkpt>
      <trkpt lat="46.2948925" lon="15.5851389">
        <ele>506.0</ele>
        <time>2011-07-03T13:04:55Z</time>
      </trkpt>
      <trkpt lat="46.2949725" lon="15.5851287">
        <ele>504.5</ele>
        <time>2011-07-03T13:05:07Z</time>
      </trkpt>
      <trkpt lat="46.294977" lon="15.5850205">
        <ele>503.0</ele>
        <time>2011-07-03T13:05:15Z</time>
      </trkpt>
      <trkpt lat="46.2949755" lon="15.5849349">
        <ele>502.5</ele>
        <time>2011-07-03T13:05:23Z</time>
      </trkpt>
      <trkpt lat="46.2950448" lon="15.5848734">
        <ele>501.5</ele>
        <time>2011-07-03T13:05:35Z</time>
      </trkpt>
      <trkpt lat="46.2951525" lon="15.5848173">
        <ele>498.5</ele>
        <time>2011-07-03T13:05:49Z</time>
      </trkpt>
      <trkpt lat="46.2952007" lon="15.584775">
        <ele>497.5</ele>
        <time>2011-07-03T13:05:53Z</time>
      </trkpt>
      <trkpt lat="46.2953122" lon="15.5846336">
        <ele>494.5</ele>
        <time>2011-07-03T13:06:05Z</time>
      </trkpt>
      <trkpt lat="46.2953977" lon="15.5844835">
        <ele>491.5</ele>
        <time>2011-07-03T13:06:17Z</time>
      </trkpt>
      <trkpt lat="46.2956181" lon="15.5846156">
        <ele>484.0</ele>
        <time>2011-07-03T13:06:23Z</time>
      </trkpt>
      <trkpt lat="46.2956178" lon="15.5847014">
        <ele>482.0</ele>
        <time>2011-07-03T13:06:25Z</time>
      </trkpt>
      <trkpt lat="46.2957284" lon="15.5845026">
        <ele>477.5</ele>
        <time>2011-07-03T13:06:37Z</time>
      </trkpt>
      <trkpt lat="46.2957584" lon="15.5844248">
        <ele>472.5</ele>
        <time>2011-07-03T13:06:47Z</time>
      </trkpt>
      <trkpt lat="46.2958705" lon="15.584359">
        <ele>469.0</ele>
        <time>2011-07-03T13:06:55Z</time>
      </trkpt>
      <trkpt lat="46.2958965" lon="15.5842748">
        <ele>468.5</ele>
        <time>2011-07-03T13:06:57Z</time>
      </trkpt>
      <trkpt lat="46.2959097" lon="15.5842048">
        <ele>468.0</ele>
        <time>2011-07-03T13:07:01Z</time>
      </trkpt>
      <trkpt lat="46.2959917" lon="15.5840952">
        <ele>466.5</ele>
        <time>2011-07-03T13:07:07Z</time>
      </trkpt>
      <trkpt lat="46.2960425" lon="15.5841077">
        <ele>465.5</ele>
        <time>2011-07-03T13:07:09Z</time>
      </trkpt>
      <trkpt lat="46.2962366" lon="15.5840964">
        <ele>462.0</ele>
        <time>2011-07-03T13:07:19Z</time>
      </trkpt>
      <trkpt lat="46.2962366" lon="15.5840964">
        <ele>462.0</ele>
        <time>2011-07-03T13:07:33Z</time>
      </trkpt>
      <trkpt lat="46.2963328" lon="15.5840474">
        <ele>453.5</ele>
        <time>2011-07-03T13:07:49Z</time>
      </trkpt>
      <trkpt lat="46.2964165" lon="15.5840969">
        <ele>451.5</ele>
        <time>2011-07-03T13:07:53Z</time>
      </trkpt>
      <trkpt lat="46.2965135" lon="15.5838973">
        <ele>449.0</ele>
        <time>2011-07-03T13:08:05Z</time>
      </trkpt>
      <trkpt lat="46.2966304" lon="15.5837835">
        <ele>446.0</ele>
        <time>2011-07-03T13:08:17Z</time>
      </trkpt>
      <trkpt lat="46.2967094" lon="15.5838105">
        <ele>443.5</ele>
        <time>2011-07-03T13:08:25Z</time>
      </trkpt>
      <trkpt lat="46.2967657" lon="15.583836">
        <ele>442.5</ele>
        <time>2011-07-03T13:08:27Z</time>
      </trkpt>
      <trkpt lat="46.2968064" lon="15.5837693">
        <ele>441.5</ele>
        <time>2011-07-03T13:08:31Z</time>
      </trkpt>
      <trkpt lat="46.2969144" lon="15.5835311">
        <ele>440.5</ele>
        <time>2011-07-03T13:08:45Z</time>
      </trkpt>
      <trkpt lat="46.2970203" lon="15.5833551">
        <ele>439.0</ele>
        <time>2011-07-03T13:08:51Z</time>
      </trkpt>
      <trkpt lat="46.2970391" lon="15.5833218">
        <ele>436.5</ele>
        <time>2011-07-03T13:08:55Z</time>
      </trkpt>
      <trkpt lat="46.2970391" lon="15.5833218">
        <time>2011-07-03T13:08:57Z</time>
      </trkpt>
    </trkseg>
  </trk>
</gpx>